Observation data for Roaring Springs on 03/05/2021      Previous  Date  Next       Current Mesonet Observations  Soil Data  Daily Summary Page  Observations in Plain Language
KRRS 050600Z 27013G19KT 13/M05 A2989 RMK A01 T01321053  RH  027%=      5-min Rain = 0
KRRS 050601Z 27012KT 13/M05 A2989 RMK A01 T01311053  RH  027%=      5-min Rain = 0
KRRS 050602Z 27014KT 13/M05 A2989 RMK A01 T01301053  RH  027%=      5-min Rain = 0
KRRS 050603Z 27014KT 13/M05 A2989 RMK A01 T01301053  RH  027%=      5-min Rain = 0
KRRS 050604Z 27014G19KT 13/M05 A2989 RMK A01 T01311053  RH  027%=      5-min Rain = 0
KRRS 050605Z 27016G23KT 13/M05 A2989 RMK A01 T01311053  RH  027%=      5-min Rain = 0
KRRS 050606Z 28013G18KT 13/M05 A2989 RMK A01 T01311053  RH  027%=      5-min Rain = 0
KRRS 050607Z 27013G18KT 13/M05 A2989 RMK A01 T01301053  RH  027%=      5-min Rain = 0
KRRS 050608Z 27014G19KT 13/M05 A2989 RMK A01 T01301053  RH  028%=      5-min Rain = 0
KRRS 050609Z 27014KT 13/M05 A2989 RMK A01 T01301053  RH  028%=      5-min Rain = 0
KRRS 050610Z 27014KT 13/M05 A2989 RMK A01 T01301053  RH  028%=      5-min Rain = 0
KRRS 050611Z 27014KT 13/M05 A2989 RMK A01 T01301053  RH  028%=      5-min Rain = 0
KRRS 050612Z 27013KT 13/M05 A2989 RMK A01 T01301053  RH  028%=      5-min Rain = 0
KRRS 050613Z 27014KT 13/M05 A2989 RMK A01 T01291053  RH  028%=      5-min Rain = 0
KRRS 050614Z 27015G20KT 13/M05 A2989 RMK A01 T01291053  RH  028%=      5-min Rain = 0
KRRS 050615Z 27015KT 13/M05 A299 RMK A01 T01291053  RH  028%=      5-min Rain = 0
KRRS 050616Z 26014G19KT 13/M05 A299 RMK A01 T01301053  RH  028%=      5-min Rain = 0
KRRS 050617Z 26013G18KT 13/M05 A299 RMK A01 T01291053  RH  028%=      5-min Rain = 0
KRRS 050618Z 27013KT 13/M05 A299 RMK A01 T01291053  RH  028%=      5-min Rain = 0
KRRS 050619Z 26013KT 13/M05 A299 RMK A01 T01281053  RH  028%=      5-min Rain = 0
KRRS 050620Z 27014KT 13/M05 A299 RMK A01 T01281053  RH  028%=      5-min Rain = 0
KRRS 050621Z 27013G18KT 13/M05 A299 RMK A01 T01271053  RH  028%=      5-min Rain = 0
KRRS 050622Z 27013KT 13/M05 A299 RMK A01 T01271053  RH  028%=      5-min Rain = 0
KRRS 050623Z 26012KT 13/M05 A299 RMK A01 T01261053  RH  028%=      5-min Rain = 0
KRRS 050624Z 27014G19KT 13/M05 A299 RMK A01 T01251053  RH  029%=      5-min Rain = 0
KRRS 050625Z 26013KT 13/M05 A299 RMK A01 T01251053  RH  029%=      5-min Rain = 0
KRRS 050626Z 27012KT 13/M05 A299 RMK A01 T01251053  RH  029%=      5-min Rain = 0
KRRS 050627Z 26012KT 12/M05 A299 RMK A01 T01241053  RH  029%=      5-min Rain = 0
KRRS 050628Z 26011KT 12/M05 A299 RMK A01 T01231053  RH  029%=      5-min Rain = 0
KRRS 050629Z 26011KT 12/M05 A299 RMK A01 T01221053  RH  029%=      5-min Rain = 0
KRRS 050630Z 26011KT 12/M05 A299 RMK A01 T01221053  RH  029%=      5-min Rain = 0
KRRS 050631Z 26011KT 12/M05 A299 RMK A01 T01211053  RH  029%=      5-min Rain = 0
KRRS 050632Z 26012KT 12/M05 A299 RMK A01 T01211053  RH  029%=      5-min Rain = 0
KRRS 050633Z 26011KT 12/M05 A299 RMK A01 T01211053  RH  029%=      5-min Rain = 0
KRRS 050634Z 26012KT 12/M05 A299 RMK A01 T01201052  RH  029%=      5-min Rain = 0
KRRS 050635Z 26011KT 12/M05 A299 RMK A01 T01201052  RH  030%=      5-min Rain = 0
KRRS 050636Z 26012KT 12/M05 A2989 RMK A01 T01191053  RH  030%=      5-min Rain = 0
KRRS 050637Z 26012KT 12/M05 A2989 RMK A01 T01191053  RH  030%=      5-min Rain = 0
KRRS 050638Z 26012KT 12/M05 A2989 RMK A01 T01191053  RH  030%=      5-min Rain = 0
KRRS 050639Z 26012KT 12/M05 A2989 RMK A01 T01191053  RH  030%=      5-min Rain = 0
KRRS 050640Z 26012KT 12/M05 A2989 RMK A01 T01191053  RH  030%=      5-min Rain = 0
KRRS 050641Z 26012KT 12/M05 A299 RMK A01 T01201053  RH  029%=      5-min Rain = 0
KRRS 050642Z 27012KT 12/M05 A299 RMK A01 T01191053  RH  030%=      5-min Rain = 0
KRRS 050643Z 26011KT 12/M05 A299 RMK A01 T01191053  RH  030%=      5-min Rain = 0
KRRS 050644Z 27010KT 12/M05 A299 RMK A01 T01181053  RH  030%=      5-min Rain = 0
KRRS 050645Z 27010KT 12/M05 A299 RMK A01 T01171053  RH  030%=      5-min Rain = 0
KRRS 050646Z 27011KT 12/M05 A299 RMK A01 T01161053  RH  030%=      5-min Rain = 0
KRRS 050647Z 27009KT 12/M05 A299 RMK A01 T01151053  RH  030%=      5-min Rain = 0
KRRS 050648Z 27010KT 11/M05 A299 RMK A01 T01131053  RH  031%=      5-min Rain = 0
KRRS 050649Z 27011KT 11/M05 A299 RMK A01 T01121053  RH  031%=      5-min Rain = 0
KRRS 050650Z 27012KT 11/M05 A299 RMK A01 T01111053  RH  031%=      5-min Rain = 0
KRRS 050651Z 27012KT 11/M05 A299 RMK A01 T01111053  RH  031%=      5-min Rain = 0
KRRS 050652Z 27012KT 11/M05 A2989 RMK A01 T01121053  RH  031%=      5-min Rain = 0
KRRS 050653Z 27012KT 11/M05 A2989 RMK A01 T01121053  RH  031%=      5-min Rain = 0
KRRS 050654Z 27012KT 11/M05 A2989 RMK A01 T01121053  RH  031%=      5-min Rain = 0
KRRS 050655Z 27012KT 11/M05 A2989 RMK A01 T01111053  RH  031%=      5-min Rain = 0
KRRS 050656Z 27012KT 11/M05 A2989 RMK A01 T01111053  RH  031%=      5-min Rain = 0
KRRS 050657Z 27013KT 11/M05 A2989 RMK A01 T01101053  RH  031%=      5-min Rain = 0
KRRS 050658Z 27012KT 11/M05 A2989 RMK A01 T01101053  RH  031%=      5-min Rain = 0
KRRS 050659Z 27013KT 11/M05 A2989 RMK A01 T01101053  RH  031%=      5-min Rain = 0
KRRS 050700Z 28012G17KT 11/M05 A2989 RMK A01 T01091053  RH  031%=      5-min Rain = 0
KRRS 050701Z 28014KT 11/M05 A299 RMK A01 T01091053  RH  032%=      5-min Rain = 0
KRRS 050702Z 28013KT 11/M05 A299 RMK A01 T01091053  RH  031%=      5-min Rain = 0
KRRS 050703Z 28014KT 11/M05 A299 RMK A01 T01101053  RH  031%=      5-min Rain = 0
KRRS 050704Z 28014G19KT 11/M05 A299 RMK A01 T01111054  RH  031%=      5-min Rain = 0
KRRS 050705Z 28013KT 11/M05 A2989 RMK A01 T01111054  RH  031%=      5-min Rain = 0
KRRS 050706Z 28013KT 11/M05 A2989 RMK A01 T01111054  RH  031%=      5-min Rain = 0
KRRS 050707Z 28013KT 11/M05 A2989 RMK A01 T01121054  RH  031%=      5-min Rain = 0
KRRS 050708Z 27013KT 11/M05 A2989 RMK A01 T01121054  RH  031%=      5-min Rain = 0
KRRS 050709Z 28013KT 11/M05 A2989 RMK A01 T01121054  RH  031%=      5-min Rain = 0
KRRS 050710Z 27013G18KT 11/M05 A2989 RMK A01 T01121054  RH  031%=      5-min Rain = 0
KRRS 050711Z 27014KT 11/M06 A2989 RMK A01 T01121055  RH  031%=      5-min Rain = 0
KRRS 050712Z 28014KT 11/M06 A299 RMK A01 T01131055  RH  030%=      5-min Rain = 0
KRRS 050713Z 28014KT 11/M06 A299 RMK A01 T01131055  RH  030%=      5-min Rain = 0
KRRS 050714Z 27013KT 11/M06 A299 RMK A01 T01131055  RH  030%=      5-min Rain = 0
KRRS 050715Z 27014G19KT 11/M06 A2989 RMK A01 T01131055  RH  030%=      5-min Rain = 0
KRRS 050716Z 27014KT 11/M06 A2989 RMK A01 T01131055  RH  030%=      5-min Rain = 0
KRRS 050717Z 27013KT 11/M06 A2989 RMK A01 T01141055  RH  030%=      5-min Rain = 0
KRRS 050718Z 27016KT 11/M06 A2989 RMK A01 T01141055  RH  030%=      5-min Rain = 0
KRRS 050719Z 27014KT 11/M05 A2989 RMK A01 T01141054  RH  030%=      5-min Rain = 0
KRRS 050720Z 27014G19KT 12/M05 A2989 RMK A01 T01151054  RH  030%=      5-min Rain = 0
KRRS 050721Z 27013KT 12/M05 A2989 RMK A01 T01151054  RH  030%=      5-min Rain = 0
KRRS 050722Z 27015KT 12/M05 A2989 RMK A01 T01151054  RH  030%=      5-min Rain = 0
KRRS 050723Z 28015KT 12/M05 A2989 RMK A01 T01151054  RH  030%=      5-min Rain = 0
KRRS 050724Z 28014KT 12/M05 A2989 RMK A01 T01151054  RH  030%=      5-min Rain = 0
KRRS 050725Z 28013KT 12/M05 A2989 RMK A01 T01151054  RH  030%=      5-min Rain = 0
KRRS 050726Z 28013KT 11/M05 A2989 RMK A01 T01141054  RH  030%=      5-min Rain = 0
KRRS 050727Z 28013G18KT 11/M05 A2989 RMK A01 T01141054  RH  030%=      5-min Rain = 0
KRRS 050728Z 27013KT 11/M05 A2989 RMK A01 T01131053  RH  031%=      5-min Rain = 0
KRRS 050729Z 28013KT 11/M05 A2989 RMK A01 T01121053  RH  031%=      5-min Rain = 0
KRRS 050730Z 28012KT 11/M05 A2989 RMK A01 T01121053  RH  031%=      5-min Rain = 0
KRRS 050731Z 28014KT 11/M05 A2989 RMK A01 T01111052  RH  031%=      5-min Rain = 0
KRRS 050732Z 28014KT 11/M05 A2989 RMK A01 T01111052  RH  031%=      5-min Rain = 0
KRRS 050733Z 28014KT 11/M05 A2989 RMK A01 T01111051  RH  032%=      5-min Rain = 0
KRRS 050734Z 28013KT 11/M05 A299 RMK A01 T01111051  RH  032%=      5-min Rain = 0
KRRS 050735Z 28016KT 11/M05 A299 RMK A01 T01111049  RH  032%=      5-min Rain = 0
KRRS 050736Z 28014KT 11/M05 A299 RMK A01 T01121048  RH  032%=      5-min Rain = 0
KRRS 050737Z 29013G18KT 11/M05 A299 RMK A01 T01121048  RH  032%=      5-min Rain = 0
KRRS 050738Z 29015KT 11/M05 A299 RMK A01 T01121048  RH  032%=      5-min Rain = 0
KRRS 050739Z 29014KT 11/M05 A299 RMK A01 T01131047  RH  032%=      5-min Rain = 0
KRRS 050740Z 29014G19KT 11/M05 A299 RMK A01 T01141046  RH  032%=      5-min Rain = 0
KRRS 050741Z 29013G18KT 11/M05 A299 RMK A01 T01141046  RH  032%=      5-min Rain = 0
KRRS 050742Z 29015G20KT 11/M05 A299 RMK A01 T01141045  RH  033%=      5-min Rain = 0
KRRS 050743Z 29016KT 11/M05 A299 RMK A01 T01131045  RH  033%=      5-min Rain = 0
KRRS 050744Z 29015KT 11/M05 A299 RMK A01 T01131045  RH  033%=      5-min Rain = 0
KRRS 050745Z 28016G21KT 11/M05 A299 RMK A01 T01131045  RH  033%=      5-min Rain = 0
KRRS 050746Z 29015G20KT 11/M05 A299 RMK A01 T01131045  RH  033%=      5-min Rain = 0
KRRS 050747Z 29014KT 11/M04 A299 RMK A01 T01121044  RH  033%=      5-min Rain = 0
KRRS 050748Z 28015G20KT 11/M04 A2991 RMK A01 T01111044  RH  033%=      5-min Rain = 0
KRRS 050749Z 28013KT 11/M04 A2991 RMK A01 T01101044  RH  034%=      5-min Rain = 0
KRRS 050750Z 29014KT 11/M04 A2991 RMK A01 T01101044  RH  034%=      5-min Rain = 0
KRRS 050751Z 29014KT 11/M04 A299 RMK A01 T01101044  RH  034%=      5-min Rain = 0
KRRS 050752Z 29014G19KT 11/M04 A299 RMK A01 T01091044  RH  034%=      5-min Rain = 0
KRRS 050753Z 29016KT 11/M04 A299 RMK A01 T01091044  RH  034%=      5-min Rain = 0
KRRS 050754Z 29014KT 11/M04 A299 RMK A01 T01091044  RH  034%=      5-min Rain = 0
KRRS 050755Z 28015G21KT 11/M04 A299 RMK A01 T01081043  RH  034%=      5-min Rain = 0
KRRS 050756Z 29016G21KT 11/M04 A299 RMK A01 T01071042  RH  035%=      5-min Rain = 0
KRRS 050757Z 29016G24KT 11/M04 A299 RMK A01 T01071042  RH  035%=      5-min Rain = 0
KRRS 050758Z 29017G22KT 11/M04 A299 RMK A01 T01071041  RH  035%=      5-min Rain = 0
KRRS 050759Z 29018G23KT 11/M04 A299 RMK A01 T01071040  RH  035%=      5-min Rain = 0
KRRS 050800Z 29017G22KT 11/M04 A2991 RMK A01 T01081040  RH  035%=      5-min Rain = 0
KRRS 050801Z 29018G25KT 11/M04 A299 RMK A01 T01081039  RH  035%=      5-min Rain = 0
KRRS 050802Z 29018G23KT 11/M04 A299 RMK A01 T01081038  RH  036%=      5-min Rain = 0
KRRS 050803Z 29016G23KT 11/M04 A299 RMK A01 T01081037  RH  036%=      5-min Rain = 0
KRRS 050804Z 29016KT 11/M04 A299 RMK A01 T01081036  RH  036%=      5-min Rain = 0
KRRS 050805Z 30017KT 11/M04 A299 RMK A01 T01071036  RH  036%=      5-min Rain = 0
KRRS 050806Z 29018G25KT 11/M03 A299 RMK A01 T01071034  RH  037%=      5-min Rain = 0
KRRS 050807Z 29015G20KT 11/M03 A299 RMK A01 T01081033  RH  037%=      5-min Rain = 0
KRRS 050808Z 30016G23KT 11/M03 A299 RMK A01 T01081033  RH  037%=      5-min Rain = 0
KRRS 050809Z 30016G21KT 11/M03 A299 RMK A01 T01081033  RH  037%=      5-min Rain = 0
KRRS 050810Z 29017G23KT 11/M03 A299 RMK A01 T01081032  RH  037%=      5-min Rain = 0
KRRS 050811Z 29014G19KT 11/M03 A299 RMK A01 T01091032  RH  037%=      5-min Rain = 0
KRRS 050812Z 29017KT 11/M03 A299 RMK A01 T01081032  RH  037%=      5-min Rain = 0
KRRS 050813Z 30015G20KT 11/M03 A299 RMK A01 T01081031  RH  037%=      5-min Rain = 0
KRRS 050814Z 30016KT 11/M03 A299 RMK A01 T01081031  RH  038%=      5-min Rain = 0
KRRS 050815Z 30016G22KT 11/M03 A299 RMK A01 T01081031  RH  038%=      5-min Rain = 0
KRRS 050816Z 29018KT 11/M03 A299 RMK A01 T01081030  RH  038%=      5-min Rain = 0
KRRS 050817Z 30017G22KT 11/M03 A299 RMK A01 T01081030  RH  038%=      5-min Rain = 0
KRRS 050818Z 29015G22KT 11/M03 A299 RMK A01 T01081030  RH  038%=      5-min Rain = 0
KRRS 050819Z 30015KT 11/M03 A299 RMK A01 T01081030  RH  038%=      5-min Rain = 0
KRRS 050820Z 29014G20KT 11/M03 A299 RMK A01 T01081029  RH  038%=      5-min Rain = 0
KRRS 050821Z 29014G19KT 11/M03 A299 RMK A01 T01071029  RH  038%=      5-min Rain = 0
KRRS 050822Z 29014G19KT 11/M03 A299 RMK A01 T01061029  RH  039%=      5-min Rain = 0
KRRS 050823Z 30015G21KT 11/M03 A299 RMK A01 T01061028  RH  039%=      5-min Rain = 0
KRRS 050824Z 30015KT 11/M03 A299 RMK A01 T01061028  RH  039%=      5-min Rain = 0
KRRS 050825Z 30014KT 11/M03 A299 RMK A01 T01061028  RH  039%=      5-min Rain = 0
KRRS 050826Z 29014G22KT 11/M03 A299 RMK A01 T01061028  RH  039%=      5-min Rain = 0
KRRS 050827Z 29016G21KT 11/M03 A2991 RMK A01 T01061027  RH  039%=      5-min Rain = 0
KRRS 050828Z 29016G21KT 11/M03 A2991 RMK A01 T01051027  RH  039%=      5-min Rain = 0
KRRS 050829Z 29017G23KT 11/M03 A2991 RMK A01 T01061027  RH  039%=      5-min Rain = 0
KRRS 050830Z 29016KT 11/M03 A2991 RMK A01 T01061026  RH  040%=      5-min Rain = 0
KRRS 050831Z 29016G22KT 11/M03 A2991 RMK A01 T01061026  RH  040%=      5-min Rain = 0
KRRS 050832Z 29019G25KT 11/M03 A2991 RMK A01 T01051026  RH  040%=      5-min Rain = 0
KRRS 050833Z 29017G23KT 11/M03 A2991 RMK A01 T01051026  RH  040%=      5-min Rain = 0
KRRS 050834Z 30017G22KT 11/M03 A2991 RMK A01 T01061026  RH  040%=      5-min Rain = 0
KRRS 050835Z 30016G22KT 11/M03 A2991 RMK A01 T01051026  RH  040%=      5-min Rain = 0
KRRS 050836Z 29016G23KT 10/M03 A2991 RMK A01 T01041026  RH  040%=      5-min Rain = 0
KRRS 050837Z 29016G21KT 10/M03 A2991 RMK A01 T01031025  RH  041%=      5-min Rain = 0
KRRS 050838Z 29016G21KT 10/M03 A2991 RMK A01 T01031025  RH  041%=      5-min Rain = 0
KRRS 050839Z 29017G23KT 10/M02 A2991 RMK A01 T01031024  RH  041%=      5-min Rain = 0
KRRS 050840Z 29017G24KT 10/M02 A2991 RMK A01 T01021024  RH  041%=      5-min Rain = 0
KRRS 050841Z 29016G21KT 10/M02 A2991 RMK A01 T01021024  RH  041%=      5-min Rain = 0
KRRS 050842Z 29017G24KT 10/M02 A2991 RMK A01 T01021023  RH  041%=      5-min Rain = 0
KRRS 050843Z 29015G22KT 10/M02 A2991 RMK A01 T01021023  RH  041%=      5-min Rain = 0
KRRS 050844Z 29017KT 10/M02 A2991 RMK A01 T01011023  RH  042%=      5-min Rain = 0
KRRS 050845Z 29017KT 10/M02 A2991 RMK A01 T01011023  RH  042%=      5-min Rain = 0
KRRS 050846Z 29016G22KT 10/M02 A2991 RMK A01 T01011023  RH  042%=      5-min Rain = 0
KRRS 050847Z 29018G23KT 10/M02 A2991 RMK A01 T01001023  RH  042%=      5-min Rain = 0
KRRS 050848Z 29017G23KT 10/M02 A2991 RMK A01 T01001022  RH  043%=      5-min Rain = 0
KRRS 050849Z 29018G23KT 10/M02 A2991 RMK A01 T01001022  RH  043%=      5-min Rain = 0
KRRS 050850Z 29015G22KT 10/M02 A2991 RMK A01 T01001022  RH  043%=      5-min Rain = 0
KRRS 050851Z 29017G23KT 10/M02 A2991 RMK A01 T00991021  RH  043%=      5-min Rain = 0
KRRS 050852Z 29015G21KT 10/M02 A2991 RMK A01 T00991021  RH  043%=      5-min Rain = 0
KRRS 050853Z 29016G22KT 10/M02 A2991 RMK A01 T00981021  RH  043%=      5-min Rain = 0
KRRS 050854Z 29016KT 10/M02 A2991 RMK A01 T00981020  RH  044%=      5-min Rain = 0
KRRS 050855Z 29015G21KT 10/M02 A2991 RMK A01 T00981020  RH  044%=      5-min Rain = 0
KRRS 050856Z 29016G22KT 10/M02 A2991 RMK A01 T00981020  RH  044%=      5-min Rain = 0
KRRS 050857Z 29017G22KT 10/M02 A2991 RMK A01 T00981019  RH  044%=      5-min Rain = 0
KRRS 050858Z 29015G20KT 10/M02 A2991 RMK A01 T00981019  RH  044%=      5-min Rain = 0
KRRS 050859Z 29016KT 10/M02 A2991 RMK A01 T00971019  RH  044%=      5-min Rain = 0
KRRS 050900Z 29016G21KT 10/M02 A2991 RMK A01 T00971019  RH  044%=      5-min Rain = 0
KRRS 050901Z 29015G20KT 10/M02 A2991 RMK A01 T00961019  RH  044%=      5-min Rain = 0
KRRS 050902Z 29014KT 10/M02 A2991 RMK A01 T00961019  RH  044%=      5-min Rain = 0
KRRS 050903Z 29014G20KT 10/M02 A2991 RMK A01 T00951019  RH  045%=      5-min Rain = 0
KRRS 050904Z 29017G22KT 09/M02 A2991 RMK A01 T00941019  RH  045%=      5-min Rain = 0
KRRS 050905Z 29014KT 09/M02 A2991 RMK A01 T00941019  RH  045%=      5-min Rain = 0
KRRS 050906Z 29014KT 09/M02 A2991 RMK A01 T00941019  RH  045%=      5-min Rain = 0
KRRS 050907Z 29015G22KT 09/M02 A2991 RMK A01 T00931019  RH  045%=      5-min Rain = 0
KRRS 050908Z 28015KT 09/M02 A2991 RMK A01 T00931018  RH  046%=      5-min Rain = 0
KRRS 050909Z 29014KT 09/M02 A2991 RMK A01 T00931018  RH  046%=      5-min Rain = 0
KRRS 050910Z 29014G19KT 09/M02 A2991 RMK A01 T00931018  RH  046%=      5-min Rain = 0
KRRS 050911Z 29015KT 09/M02 A2991 RMK A01 T00921018  RH  046%=      5-min Rain = 0
KRRS 050912Z 29014G21KT 09/M02 A2991 RMK A01 T00911018  RH  046%=      5-min Rain = 0
KRRS 050913Z 29016G21KT 09/M02 A2991 RMK A01 T00911018  RH  046%=      5-min Rain = 0
KRRS 050914Z 28014KT 09/M02 A2991 RMK A01 T00921017  RH  046%=      5-min Rain = 0
KRRS 050915Z 28013KT 09/M02 A2992 RMK A01 T00921017  RH  046%=      5-min Rain = 0
KRRS 050916Z 28014G20KT 09/M02 A2992 RMK A01 T00911017  RH  047%=      5-min Rain = 0
KRRS 050917Z 29015G20KT 09/M02 A2991 RMK A01 T00911016  RH  047%=      5-min Rain = 0
KRRS 050918Z 28015G22KT 09/M02 A2991 RMK A01 T00911016  RH  047%=      5-min Rain = 0
KRRS 050919Z 28015KT 09/M02 A2992 RMK A01 T00911016  RH  047%=      5-min Rain = 0
KRRS 050920Z 28014G20KT 09/M02 A2992 RMK A01 T00911015  RH  047%=      5-min Rain = 0
KRRS 050921Z 28015G20KT 09/M02 A2992 RMK A01 T00911015  RH  047%=      5-min Rain = 0
KRRS 050922Z 28016G21KT 09/M01 A2992 RMK A01 T00921014  RH  047%=      5-min Rain = 0
KRRS 050923Z 28015G21KT 09/M01 A2992 RMK A01 T00921013  RH  048%=      5-min Rain = 0
KRRS 050924Z 28015G21KT 09/M01 A2992 RMK A01 T00931013  RH  048%=      5-min Rain = 0
KRRS 050925Z 28017G25KT 09/M01 A2992 RMK A01 T00931012  RH  048%=      5-min Rain = 0
KRRS 050926Z 28017G25KT 09/M01 A2992 RMK A01 T00941011  RH  048%=      5-min Rain = 0
KRRS 050927Z 29015G22KT 10/M01 A2992 RMK A01 T00951011  RH  048%=      5-min Rain = 0
KRRS 050928Z 29016KT 09/M01 A2992 RMK A01 T00941011  RH  048%=      5-min Rain = 0
KRRS 050929Z 29015G20KT 09/M01 A2992 RMK A01 T00941011  RH  048%=      5-min Rain = 0
KRRS 050930Z 29018KT 09/M01 A2992 RMK A01 T00941010  RH  048%=      5-min Rain = 0
KRRS 050931Z 29018G26KT 09/M01 A2992 RMK A01 T00941010  RH  048%=      5-min Rain = 0
KRRS 050932Z 28017G22KT 10/M01 A2992 RMK A01 T00951009  RH  048%=      5-min Rain = 0
KRRS 050933Z 29015G21KT 10/M01 A2992 RMK A01 T00951009  RH  048%=      5-min Rain = 0
KRRS 050934Z 29017G23KT 10/M01 A2992 RMK A01 T00951009  RH  048%=      5-min Rain = 0
KRRS 050935Z 29018G24KT 10/M01 A2992 RMK A01 T00951008  RH  049%=      5-min Rain = 0
KRRS 050936Z 28017G24KT 10/M01 A2992 RMK A01 T00951008  RH  049%=      5-min Rain = 0
KRRS 050937Z 29017G22KT 10/M01 A2992 RMK A01 T00951008  RH  049%=      5-min Rain = 0
KRRS 050938Z 29016G24KT 10/M01 A2992 RMK A01 T00951008  RH  049%=      5-min Rain = 0
KRRS 050939Z 29015G21KT 09/M01 A2992 RMK A01 T00941008  RH  049%=      5-min Rain = 0
KRRS 050940Z 29017G22KT 09/M01 A2992 RMK A01 T00941008  RH  049%=      5-min Rain = 0
KRRS 050941Z 29015KT 09/M01 A2992 RMK A01 T00931007  RH  049%=      5-min Rain = 0
KRRS 050942Z 29015KT 09/M01 A2992 RMK A01 T00931007  RH  049%=      5-min Rain = 0
KRRS 050943Z 30013KT 09/M01 A2993 RMK A01 T00931007  RH  049%=      5-min Rain = 0
KRRS 050944Z 29015G21KT 09/M01 A2993 RMK A01 T00921007  RH  050%=      5-min Rain = 0
KRRS 050945Z 29014KT 09/M01 A2993 RMK A01 T00921007  RH  050%=      5-min Rain = 0
KRRS 050946Z 29013KT 09/M01 A2993 RMK A01 T00921007  RH  050%=      5-min Rain = 0
KRRS 050947Z 29012KT 09/M01 A2993 RMK A01 T00911007  RH  050%=      5-min Rain = 0
KRRS 050948Z 29012G17KT 09/M01 A2993 RMK A01 T00911007  RH  050%=      5-min Rain = 0
KRRS 050949Z 29012G19KT 09/M01 A2993 RMK A01 T00911007  RH  050%=      5-min Rain = 0
KRRS 050950Z 29011KT 09/M01 A2993 RMK A01 T00901007  RH  051%=      5-min Rain = 0
KRRS 050951Z 29011G16KT 09/M01 A2993 RMK A01 T00901007  RH  051%=      5-min Rain = 0
KRRS 050952Z 29011KT 09/M01 A2992 RMK A01 T00891006  RH  051%=      5-min Rain = 0
KRRS 050953Z 29012KT 09/M01 A2992 RMK A01 T00891006  RH  051%=      5-min Rain = 0
KRRS 050954Z 30012KT 09/M01 A2992 RMK A01 T00901005  RH  051%=      5-min Rain = 0
KRRS 050955Z 29013KT 09/M01 A2992 RMK A01 T00901005  RH  052%=      5-min Rain = 0
KRRS 050956Z 29011KT 09/M01 A2992 RMK A01 T00901005  RH  052%=      5-min Rain = 0
KRRS 050957Z 29011KT 09/M00 A2992 RMK A01 T00901004  RH  052%=      5-min Rain = 0
KRRS 050958Z 29013KT 09/M00 A2992 RMK A01 T00901004  RH  052%=      5-min Rain = 0
KRRS 050959Z 29015KT 09/M00 A2993 RMK A01 T00901004  RH  052%=      5-min Rain = 0
KRRS 051000Z 30015G20KT 09/M00 A2993 RMK A01 T00901003  RH  052%=      5-min Rain = 0
KRRS 051001Z 29013G20KT 09/M00 A2993 RMK A01 T00911003  RH  052%=      5-min Rain = 0
KRRS 051002Z 29016G21KT 09/M00 A2993 RMK A01 T00911003  RH  052%=      5-min Rain = 0
KRRS 051003Z 30015G21KT 09/M00 A2993 RMK A01 T00911002  RH  052%=      5-min Rain = 0
KRRS 051004Z 30014G20KT 09/M00 A2993 RMK A01 T00921002  RH  052%=      5-min Rain = 0
KRRS 051005Z 29014KT 09/M00 A2993 RMK A01 T00911001  RH  052%=      5-min Rain = 0
KRRS 051006Z 29014G20KT 09/M00 A2993 RMK A01 T00911001  RH  052%=      5-min Rain = 0
KRRS 051007Z 30015G20KT 09/M00 A2993 RMK A01 T00911001  RH  053%=      5-min Rain = 0
KRRS 051008Z 30013G20KT 09/M00 A2993 RMK A01 T00911001  RH  053%=      5-min Rain = 0
KRRS 051009Z 29016G24KT 09/00 A2993 RMK A01 T009100-0  RH  053%=      5-min Rain = 0
KRRS 051010Z 30011G16KT 09/00 A2993 RMK A01 T009100-0  RH  053%=      5-min Rain = 0
KRRS 051011Z 30014KT 09/M00 A2993 RMK A01 T00901001  RH  053%=      5-min Rain = 0
KRRS 051012Z 30015G20KT 09/00 A2993 RMK A01 T009000-0  RH  053%=      5-min Rain = 0
KRRS 051013Z 30013KT 09/00 A2993 RMK A01 T009000-0  RH  053%=      5-min Rain = 0
KRRS 051014Z 31013G18KT 09/M00 A2993 RMK A01 T00891001  RH  053%=      5-min Rain = 0
KRRS 051015Z 31013KT 09/M00 A2993 RMK A01 T00881001  RH  054%=      5-min Rain = 0
KRRS 051016Z 31014KT 09/M00 A2993 RMK A01 T00871001  RH  054%=      5-min Rain = 0
KRRS 051017Z 31014KT 09/M00 A2993 RMK A01 T00861001  RH  054%=      5-min Rain = 0
KRRS 051018Z 31012KT 09/M00 A2994 RMK A01 T00861001  RH  054%=      5-min Rain = 0
KRRS 051019Z 31013G19KT 09/M00 A2994 RMK A01 T00851001  RH  054%=      5-min Rain = 0
KRRS 051020Z 31015KT 09/M00 A2994 RMK A01 T00851001  RH  055%=      5-min Rain = 0
KRRS 051021Z 31014KT 09/M00 A2994 RMK A01 T00851001  RH  055%=      5-min Rain = 0
KRRS 051022Z 31016G22KT 09/M00 A2994 RMK A01 T00851001  RH  055%=      5-min Rain = 0
KRRS 051023Z 30015G21KT 09/M00 A2994 RMK A01 T00851001  RH  055%=      5-min Rain = 0
KRRS 051024Z 31016G22KT 09/00 A2994 RMK A01 T008500-0  RH  055%=      5-min Rain = 0
KRRS 051025Z 30015G20KT 09/00 A2994 RMK A01 T00850000  RH  055%=      5-min Rain = 0
KRRS 051026Z 31016G22KT 09/00 A2994 RMK A01 T00850000  RH  055%=      5-min Rain = 0
KRRS 051027Z 31017G22KT 09/00 A2994 RMK A01 T00850000  RH  055%=      5-min Rain = 0
KRRS 051028Z 30014KT 09/00 A2994 RMK A01 T00850000  RH  055%=      5-min Rain = 0
KRRS 051029Z 30016G21KT 09/00 A2994 RMK A01 T00850000  RH  055%=      5-min Rain = 0
KRRS 051030Z 30017G24KT 09/00 A2994 RMK A01 T00850001  RH  055%=      5-min Rain = 0
KRRS 051031Z 30013G19KT 09/00 A2994 RMK A01 T00860000  RH  055%=      5-min Rain = 0
KRRS 051032Z 30014KT 09/00 A2994 RMK A01 T008500-0  RH  055%=      5-min Rain = 0
KRRS 051033Z 30015G21KT 08/00 A2994 RMK A01 T008400-0  RH  055%=      5-min Rain = 0
KRRS 051034Z 30017KT 08/00 A2994 RMK A01 T00840001  RH  056%=      5-min Rain = 0
KRRS 051035Z 30014KT 08/00 A2994 RMK A01 T00840001  RH  056%=      5-min Rain = 0
KRRS 051036Z 30016G22KT 08/00 A2995 RMK A01 T00840001  RH  056%=      5-min Rain = 0
KRRS 051037Z 30016G21KT 08/00 A2995 RMK A01 T00840001  RH  056%=      5-min Rain = 0
KRRS 051038Z 30016G21KT 08/00 A2995 RMK A01 T00840001  RH  056%=      5-min Rain = 0
KRRS 051039Z 30016G22KT 08/00 A2995 RMK A01 T00840002  RH  056%=      5-min Rain = 0
KRRS 051040Z 30019G25KT 08/00 A2995 RMK A01 T00840002  RH  056%=      5-min Rain = 0
KRRS 051041Z 30015G21KT 09/00 A2995 RMK A01 T00850002  RH  056%=      5-min Rain = 0
KRRS 051042Z 31015G21KT 08/00 A2995 RMK A01 T00840002  RH  056%=      5-min Rain = 0
KRRS 051043Z 31016KT 08/00 A2995 RMK A01 T00840002  RH  056%=      5-min Rain = 0
KRRS 051044Z 31015KT 08/00 A2995 RMK A01 T00840002  RH  057%=      5-min Rain = 0
KRRS 051045Z 31014G20KT 08/00 A2995 RMK A01 T00840002  RH  057%=      5-min Rain = 0
KRRS 051046Z 31013G19KT 08/00 A2995 RMK A01 T00830002  RH  057%=      5-min Rain = 0
KRRS 051047Z 31014KT 08/00 A2996 RMK A01 T00820002  RH  057%=      5-min Rain = 0
KRRS 051048Z 31014KT 08/00 A2996 RMK A01 T00820002  RH  057%=      5-min Rain = 0
KRRS 051049Z 31015KT 08/00 A2996 RMK A01 T00820002  RH  057%=      5-min Rain = 0
KRRS 051050Z 31013KT 08/00 A2996 RMK A01 T00820002  RH  057%=      5-min Rain = 0
KRRS 051051Z 31011KT 08/00 A2996 RMK A01 T00820002  RH  057%=      5-min Rain = 0
KRRS 051052Z 31011KT 08/00 A2996 RMK A01 T00810001  RH  057%=      5-min Rain = 0
KRRS 051053Z 31013G18KT 08/00 A2996 RMK A01 T00800002  RH  058%=      5-min Rain = 0
KRRS 051054Z 31013KT 08/00 A2996 RMK A01 T00800002  RH  058%=      5-min Rain = 0
KRRS 051055Z 31012KT 08/00 A2996 RMK A01 T00790002  RH  058%=      5-min Rain = 0
KRRS 051056Z 31014G19KT 08/00 A2996 RMK A01 T00800003  RH  058%=      5-min Rain = 0
KRRS 051057Z 31015KT 08/00 A2996 RMK A01 T00790003  RH  059%=      5-min Rain = 0
KRRS 051058Z 31014KT 08/00 A2996 RMK A01 T00800004  RH  059%=      5-min Rain = 0
KRRS 051059Z 30014G19KT 08/00 A2996 RMK A01 T00800004  RH  059%=      5-min Rain = 0
KRRS 051100Z 30012G18KT 08/00 A2996 RMK A01 T00800004  RH  059%=      5-min Rain = 0
KRRS 051101Z 30013G18KT 08/00 A2996 RMK A01 T00790004  RH  059%=      5-min Rain = 0
KRRS 051102Z 30013KT 08/01 A2996 RMK A01 T00790005  RH  059%=      5-min Rain = 0
KRRS 051103Z 30013KT 08/01 A2996 RMK A01 T00790005  RH  059%=      5-min Rain = 0
KRRS 051104Z 30012KT 08/01 A2996 RMK A01 T00790005  RH  059%=      5-min Rain = 0
KRRS 051105Z 30012G17KT 08/01 A2996 RMK A01 T00790005  RH  060%=      5-min Rain = 0
KRRS 051106Z 30013KT 08/01 A2996 RMK A01 T00790005  RH  060%=      5-min Rain = 0
KRRS 051107Z 30014KT 08/01 A2996 RMK A01 T00780005  RH  060%=      5-min Rain = 0
KRRS 051108Z 30012KT 08/01 A2996 RMK A01 T00780005  RH  060%=      5-min Rain = 0
KRRS 051109Z 31012KT 08/01 A2996 RMK A01 T00790006  RH  060%=      5-min Rain = 0
KRRS 051110Z 30012KT 08/01 A2996 RMK A01 T00780005  RH  060%=      5-min Rain = 0
KRRS 051111Z 31013KT 08/01 A2996 RMK A01 T00780006  RH  060%=      5-min Rain = 0
KRRS 051112Z 31011KT 08/01 A2997 RMK A01 T00780006  RH  060%=      5-min Rain = 0
KRRS 051113Z 31012KT 08/01 A2997 RMK A01 T00780005  RH  060%=      5-min Rain = 0
KRRS 051114Z 31011KT 08/01 A2997 RMK A01 T00770006  RH  061%=      5-min Rain = 0
KRRS 051115Z 31015G20KT 08/01 A2997 RMK A01 T00770006  RH  061%=      5-min Rain = 0
KRRS 051116Z 30016KT 08/01 A2996 RMK A01 T00770007  RH  061%=      5-min Rain = 0
KRRS 051117Z 30016KT 08/01 A2996 RMK A01 T00790007  RH  061%=      5-min Rain = 0
KRRS 051118Z 29015KT 08/01 A2996 RMK A01 T00790007  RH  060%=      5-min Rain = 0
KRRS 051119Z 30014G19KT 08/01 A2996 RMK A01 T00790007  RH  060%=      5-min Rain = 0
KRRS 051120Z 29015KT 08/01 A2996 RMK A01 T00800008  RH  060%=      5-min Rain = 0
KRRS 051121Z 29015G20KT 08/01 A2996 RMK A01 T00800008  RH  060%=      5-min Rain = 0
KRRS 051122Z 29015G20KT 08/01 A2996 RMK A01 T00800008  RH  060%=      5-min Rain = 0
KRRS 051123Z 29017G22KT 08/01 A2996 RMK A01 T00810008  RH  060%=      5-min Rain = 0
KRRS 051124Z 29017G24KT 08/01 A2996 RMK A01 T00820008  RH  060%=      5-min Rain = 0
KRRS 051125Z 29015KT 08/01 A2996 RMK A01 T00820008  RH  060%=      5-min Rain = 0
KRRS 051126Z 29016G22KT 08/01 A2996 RMK A01 T00820008  RH  060%=      5-min Rain = 0
KRRS 051127Z 29015G20KT 08/01 A2996 RMK A01 T00820008  RH  060%=      5-min Rain = 0
KRRS 051128Z 29014KT 08/01 A2996 RMK A01 T00820008  RH  060%=      5-min Rain = 0
KRRS 051129Z 29014G20KT 08/01 A2996 RMK A01 T00820008  RH  060%=      5-min Rain = 0
KRRS 051130Z 29016KT 08/01 A2996 RMK A01 T00810009  RH  060%=      5-min Rain = 0
KRRS 051131Z 29013KT 08/01 A2996 RMK A01 T00810009  RH  060%=      5-min Rain = 0
KRRS 051132Z 29016KT 08/01 A2996 RMK A01 T00810009  RH  060%=      5-min Rain = 0
KRRS 051133Z 29014KT 08/01 A2996 RMK A01 T00810009  RH  060%=      5-min Rain = 0
KRRS 051134Z 29013KT 08/01 A2996 RMK A01 T00810009  RH  060%=      5-min Rain = 0
KRRS 051135Z 29014KT 08/01 A2996 RMK A01 T00800008  RH  060%=      5-min Rain = 0
KRRS 051136Z 29014G19KT 08/01 A2996 RMK A01 T00790009  RH  061%=      5-min Rain = 0
KRRS 051137Z 29013KT 08/01 A2996 RMK A01 T00790009  RH  061%=      5-min Rain = 0
KRRS 051138Z 29013KT 08/01 A2996 RMK A01 T00790009  RH  061%=      5-min Rain = 0
KRRS 051139Z 29011G16KT 08/01 A2996 RMK A01 T00790009  RH  061%=      5-min Rain = 0
KRRS 051140Z 29013KT 08/01 A2996 RMK A01 T00790009  RH  061%=      5-min Rain = 0
KRRS 051141Z 29015KT 08/01 A2996 RMK A01 T00790009  RH  061%=      5-min Rain = 0
KRRS 051142Z 29011KT 08/01 A2996 RMK A01 T00790009  RH  061%=      5-min Rain = 0
KRRS 051143Z 29011KT 08/01 A2996 RMK A01 T00790009  RH  061%=      5-min Rain = 0
KRRS 051144Z 29012KT 08/01 A2996 RMK A01 T00780009  RH  062%=      5-min Rain = 0
KRRS 051145Z 29012KT 08/01 A2996 RMK A01 T00780009  RH  062%=      5-min Rain = 0
KRRS 051146Z 29011KT 08/01 A2996 RMK A01 T00780009  RH  062%=      5-min Rain = 0
KRRS 051147Z 29011KT 08/01 A2996 RMK A01 T00780009  RH  062%=      5-min Rain = 0
KRRS 051148Z 29012KT 08/01 A2996 RMK A01 T00770009  RH  062%=      5-min Rain = 0
KRRS 051149Z 29012KT 08/01 A2996 RMK A01 T00770009  RH  062%=      5-min Rain = 0
KRRS 051150Z 29012KT 08/01 A2996 RMK A01 T00760009  RH  063%=      5-min Rain = 0
KRRS 051151Z 29012KT 08/01 A2996 RMK A01 T00760010  RH  063%=      5-min Rain = 0
KRRS 051152Z 29013G18KT 08/01 A2996 RMK A01 T00760010  RH  063%=      5-min Rain = 0
KRRS 051153Z 28011KT 08/01 A2996 RMK A01 T00770010  RH  063%=      5-min Rain = 0
KRRS 051154Z 28011G16KT 08/01 A2996 RMK A01 T00760009  RH  063%=      5-min Rain = 0
KRRS 051155Z 28013KT 08/01 A2996 RMK A01 T00750010  RH  063%=      5-min Rain = 0
KRRS 051156Z 29012KT 08/01 A2996 RMK A01 T00750010  RH  063%=      5-min Rain = 0
KRRS 051157Z 28012KT 08/01 A2996 RMK A01 T00750010  RH  063%=      5-min Rain = 0
KRRS 051158Z 28014G21KT 08/01 A2996 RMK A01 T00750010  RH  063%=      5-min Rain = 0
KRRS 051159Z 28015KT 08/01 A2996 RMK A01 T00760011  RH  063%=      5-min Rain = 0
KRRS 051200Z 28014G19KT 08/01 A2996 RMK A01 T00760011  RH  063%=      5-min Rain = 0
KRRS 051201Z 28014G20KT 08/01 A2996 RMK A01 T00760011  RH  064%=      5-min Rain = 0
KRRS 051202Z 28013KT 08/01 A2996 RMK A01 T00760011  RH  063%=      5-min Rain = 0
KRRS 051203Z 29012G17KT 08/01 A2996 RMK A01 T00750011  RH  064%=      5-min Rain = 0
KRRS 051204Z 29013KT 08/01 A2996 RMK A01 T00750011  RH  064%=      5-min Rain = 0
KRRS 051205Z 29014KT 08/01 A2997 RMK A01 T00750011  RH  064%=      5-min Rain = 0
KRRS 051206Z 28014KT 08/01 A2997 RMK A01 T00750012  RH  064%=      5-min Rain = 0
KRRS 051207Z 29014G19KT 08/01 A2996 RMK A01 T00750011  RH  064%=      5-min Rain = 0
KRRS 051208Z 29014KT 07/01 A2996 RMK A01 T00740011  RH  064%=      5-min Rain = 0
KRRS 051209Z 29013KT 07/01 A2996 RMK A01 T00740011  RH  064%=      5-min Rain = 0
KRRS 051210Z 29015G20KT 07/01 A2996 RMK A01 T00740011  RH  064%=      5-min Rain = 0
KRRS 051211Z 29015KT 07/01 A2996 RMK A01 T00730011  RH  064%=      5-min Rain = 0
KRRS 051212Z 28016G22KT 07/01 A2996 RMK A01 T00740011  RH  064%=      5-min Rain = 0
KRRS 051213Z 28014G19KT 07/01 A2996 RMK A01 T00730011  RH  064%=      5-min Rain = 0
KRRS 051214Z 28016G21KT 07/01 A2996 RMK A01 T00730011  RH  065%=      5-min Rain = 0
KRRS 051215Z 28015G20KT 07/01 A2997 RMK A01 T00730011  RH  065%=      5-min Rain = 0
KRRS 051216Z 28016KT 07/01 A2997 RMK A01 T00730011  RH  065%=      5-min Rain = 0
KRRS 051217Z 28015G21KT 07/01 A2996 RMK A01 T00730011  RH  065%=      5-min Rain = 0
KRRS 051218Z 28016G22KT 07/01 A2996 RMK A01 T00730011  RH  065%=      5-min Rain = 0
KRRS 051219Z 28015G22KT 07/01 A2996 RMK A01 T00730011  RH  065%=      5-min Rain = 0
KRRS 051220Z 28016G25KT 07/01 A2996 RMK A01 T00730012  RH  065%=      5-min Rain = 0
KRRS 051221Z 29016G23KT 07/01 A2997 RMK A01 T00730012  RH  065%=      5-min Rain = 0
KRRS 051222Z 29016G22KT 07/01 A2997 RMK A01 T00730012  RH  065%=      5-min Rain = 0
KRRS 051223Z 29015G21KT 07/01 A2997 RMK A01 T00730012  RH  065%=      5-min Rain = 0
KRRS 051224Z 28016KT 07/01 A2997 RMK A01 T00730013  RH  066%=      5-min Rain = 0
KRRS 051225Z 29015KT 07/01 A2996 RMK A01 T00730013  RH  066%=      5-min Rain = 0
KRRS 051226Z 28015KT 07/01 A2996 RMK A01 T00730013  RH  066%=      5-min Rain = 0
KRRS 051227Z 28016G21KT 07/01 A2996 RMK A01 T00730014  RH  066%=      5-min Rain = 0
KRRS 051228Z 29016KT 07/01 A2997 RMK A01 T00730014  RH  066%=      5-min Rain = 0
KRRS 051229Z 28015G20KT 07/01 A2997 RMK A01 T00730014  RH  066%=      5-min Rain = 0
KRRS 051230Z 29017G23KT 07/01 A2997 RMK A01 T00730014  RH  066%=      5-min Rain = 0
KRRS 051231Z 28017G24KT 07/01 A2997 RMK A01 T00730014  RH  066%=      5-min Rain = 0
KRRS 051232Z 28015G20KT 07/01 A2997 RMK A01 T00730014  RH  066%=      5-min Rain = 0
KRRS 051233Z 28016KT 07/01 A2997 RMK A01 T00730014  RH  066%=      5-min Rain = 0
KRRS 051234Z 28015KT 07/01 A2997 RMK A01 T00740014  RH  066%=      5-min Rain = 0
KRRS 051235Z 28016G22KT 07/01 A2997 RMK A01 T00730014  RH  066%=      5-min Rain = 0
KRRS 051236Z 28015G20KT 07/01 A2997 RMK A01 T00730014  RH  066%=      5-min Rain = 0
KRRS 051237Z 28016G21KT 07/01 A2997 RMK A01 T00730014  RH  066%=      5-min Rain = 0
KRRS 051238Z 28014G19KT 07/02 A2997 RMK A01 T00740015  RH  066%=      5-min Rain = 0
KRRS 051239Z 29016KT 07/01 A2997 RMK A01 T00730014  RH  066%=      5-min Rain = 0
KRRS 051240Z 28014G19KT 07/02 A2997 RMK A01 T00740015  RH  066%=      5-min Rain = 0
KRRS 051241Z 28016KT 07/01 A2997 RMK A01 T00740014  RH  066%=      5-min Rain = 0
KRRS 051242Z 28016G21KT 07/02 A2997 RMK A01 T00740015  RH  066%=      5-min Rain = 0
KRRS 051243Z 28017G23KT 07/02 A2997 RMK A01 T00740015  RH  066%=      5-min Rain = 0
KRRS 051244Z 29017KT 08/02 A2997 RMK A01 T00750015  RH  066%=      5-min Rain = 0
KRRS 051245Z 29014G19KT 08/02 A2997 RMK A01 T00750015  RH  066%=      5-min Rain = 0
KRRS 051246Z 29016KT 08/02 A2997 RMK A01 T00750015  RH  066%=      5-min Rain = 0
KRRS 051247Z 29015KT 08/02 A2997 RMK A01 T00750015  RH  066%=      5-min Rain = 0
KRRS 051248Z 28015KT 08/02 A2997 RMK A01 T00750015  RH  066%=      5-min Rain = 0
KRRS 051249Z 28016G21KT 08/02 A2997 RMK A01 T00750015  RH  066%=      5-min Rain = 0
KRRS 051250Z 29017KT 08/02 A2997 RMK A01 T00750016  RH  066%=      5-min Rain = 0
KRRS 051251Z 28015KT 08/02 A2997 RMK A01 T00760016  RH  066%=      5-min Rain = 0
KRRS 051252Z 28014KT 08/02 A2996 RMK A01 T00760016  RH  066%=      5-min Rain = 0
KRRS 051253Z 28014G19KT 08/02 A2996 RMK A01 T00760016  RH  066%=      5-min Rain = 0
KRRS 051254Z 29015G21KT 08/02 A2997 RMK A01 T00760017  RH  066%=      5-min Rain = 0
KRRS 051255Z 29014KT 08/02 A2997 RMK A01 T00760017  RH  066%=      5-min Rain = 0
KRRS 051256Z 29014KT 08/02 A2997 RMK A01 T00760017  RH  066%=      5-min Rain = 0
KRRS 051257Z 29013KT 08/02 A2997 RMK A01 T00760017  RH  066%=      5-min Rain = 0
KRRS 051258Z 29015G20KT 08/02 A2997 RMK A01 T00760017  RH  066%=      5-min Rain = 0
KRRS 051259Z 29014KT 08/02 A2997 RMK A01 T00760018  RH  066%=      5-min Rain = 0
KRRS 051300Z 29012KT 08/02 A2997 RMK A01 T00770018  RH  066%=      5-min Rain = 0
KRRS 051301Z 29012KT 08/02 A2997 RMK A01 T00770018  RH  066%=      5-min Rain = 0
KRRS 051302Z 29014KT 08/02 A2997 RMK A01 T00760018  RH  066%=      5-min Rain = 0
KRRS 051303Z 29015KT 08/02 A2997 RMK A01 T00760018  RH  067%=      5-min Rain = 0
KRRS 051304Z 29013G19KT 08/02 A2997 RMK A01 T00770018  RH  066%=      5-min Rain = 0
KRRS 051305Z 29015KT 08/02 A2997 RMK A01 T00770018  RH  066%=      5-min Rain = 0
KRRS 051306Z 29015G20KT 08/02 A2997 RMK A01 T00770018  RH  066%=      5-min Rain = 0
KRRS 051307Z 29014G19KT 08/02 A2997 RMK A01 T00780018  RH  066%=      5-min Rain = 0
KRRS 051308Z 29013G19KT 08/02 A2998 RMK A01 T00780018  RH  066%=      5-min Rain = 0
KRRS 051309Z 29014KT 08/02 A2998 RMK A01 T00770018  RH  066%=      5-min Rain = 0
KRRS 051310Z 29014KT 08/02 A2998 RMK A01 T00770018  RH  066%=      5-min Rain = 0
KRRS 051311Z 29014KT 08/02 A2998 RMK A01 T00760018  RH  067%=      5-min Rain = 0
KRRS 051312Z 29015KT 08/02 A2998 RMK A01 T00760018  RH  067%=      5-min Rain = 0
KRRS 051313Z 29014KT 08/02 A2998 RMK A01 T00760018  RH  067%=      5-min Rain = 0
KRRS 051314Z 29013KT 08/02 A2998 RMK A01 T00760018  RH  067%=      5-min Rain = 0
KRRS 051315Z 29013KT 08/02 A2998 RMK A01 T00760018  RH  067%=      5-min Rain = 0
KRRS 051316Z 29014KT 08/02 A2998 RMK A01 T00750018  RH  067%=      5-min Rain = 0
KRRS 051317Z 29014KT 08/02 A2998 RMK A01 T00750018  RH  067%=      5-min Rain = 0
KRRS 051318Z 29013KT 08/02 A2998 RMK A01 T00750018  RH  067%=      5-min Rain = 0
KRRS 051319Z 29012KT 08/02 A2998 RMK A01 T00750018  RH  067%=      5-min Rain = 0
KRRS 051320Z 29015KT 08/02 A2998 RMK A01 T00750018  RH  067%=      5-min Rain = 0
KRRS 051321Z 29013KT 08/02 A2998 RMK A01 T00750018  RH  067%=      5-min Rain = 0
KRRS 051322Z 29013KT 08/02 A2999 RMK A01 T00750018  RH  067%=      5-min Rain = 0
KRRS 051323Z 29013KT 08/02 A2999 RMK A01 T00750018  RH  067%=      5-min Rain = 0
KRRS 051324Z 29014KT 08/02 A2999 RMK A01 T00750018  RH  067%=      5-min Rain = 0
KRRS 051325Z 29013KT 08/02 A2999 RMK A01 T00750018  RH  067%=      5-min Rain = 0
KRRS 051326Z 29012G17KT 08/02 A2999 RMK A01 T00750018  RH  067%=      5-min Rain = 0
KRRS 051327Z 29012KT 08/02 A2999 RMK A01 T00750019  RH  067%=      5-min Rain = 0
KRRS 051328Z 29012KT 08/02 A2999 RMK A01 T00750019  RH  067%=      5-min Rain = 0
KRRS 051329Z 29012KT 08/02 A2999 RMK A01 T00750019  RH  067%=      5-min Rain = 0
KRRS 051330Z 29012KT 08/02 A2999 RMK A01 T00750019  RH  067%=      5-min Rain = 0
KRRS 051331Z 29012G17KT 08/02 A2999 RMK A01 T00760019  RH  067%=      5-min Rain = 0
KRRS 051332Z 29012KT 08/02 A2999 RMK A01 T00760019  RH  067%=      5-min Rain = 0
KRRS 051333Z 29013KT 08/02 A2999 RMK A01 T00770020  RH  067%=      5-min Rain = 0
KRRS 051334Z 29012KT 08/02 A2999 RMK A01 T00770020  RH  067%=      5-min Rain = 0
KRRS 051335Z 29012KT 08/02 A2999 RMK A01 T00780020  RH  067%=      5-min Rain = 0
KRRS 051336Z 30011KT 08/02 A2999 RMK A01 T00780020  RH  067%=      5-min Rain = 0
KRRS 051337Z 30012G17KT 08/02 A2999 RMK A01 T00780021  RH  067%=      5-min Rain = 0
KRRS 051338Z 30014KT 08/02 A2999 RMK A01 T00790022  RH  067%=      5-min Rain = 0
KRRS 051339Z 30014KT 08/02 A2999 RMK A01 T00800023  RH  067%=      5-min Rain = 0
KRRS 051340Z 30013KT 08/02 A2999 RMK A01 T00810024  RH  067%=      5-min Rain = 0
KRRS 051341Z 30015G20KT 08/02 A2999 RMK A01 T00820024  RH  067%=      5-min Rain = 0
KRRS 051342Z 30015KT 08/03 A30 RMK A01 T00830025  RH  067%=      5-min Rain = 0
KRRS 051343Z 30017G22KT 08/03 A30 RMK A01 T00840025  RH  066%=      5-min Rain = 0
KRRS 051344Z 31016G21KT 09/03 A30 RMK A01 T00850025  RH  066%=      5-min Rain = 0
KRRS 051345Z 31015KT 09/03 A30 RMK A01 T00860025  RH  066%=      5-min Rain = 0
KRRS 051346Z 30014KT 09/03 A30 RMK A01 T00860025  RH  066%=      5-min Rain = 0
KRRS 051347Z 30012G17KT 09/03 A30 RMK A01 T00860026  RH  066%=      5-min Rain = 0
KRRS 051348Z 30013KT 09/03 A30 RMK A01 T00860026  RH  066%=      5-min Rain = 0
KRRS 051349Z 30013KT 09/03 A30 RMK A01 T00860026  RH  066%=      5-min Rain = 0
KRRS 051350Z 31015KT 09/03 A30 RMK A01 T00860027  RH  066%=      5-min Rain = 0
KRRS 051351Z 31014G21KT 09/03 A30 RMK A01 T00870027  RH  066%=      5-min Rain = 0
KRRS 051352Z 31016KT 09/03 A30 RMK A01 T00870027  RH  066%=      5-min Rain = 0
KRRS 051353Z 31014G21KT 09/03 A30 RMK A01 T00880028  RH  066%=      5-min Rain = 0
KRRS 051354Z 30015G20KT 09/03 A30 RMK A01 T00890028  RH  066%=      5-min Rain = 0
KRRS 051355Z 31017G22KT 09/03 A30 RMK A01 T00890029  RH  066%=      5-min Rain = 0
KRRS 051356Z 31017G24KT 09/03 A30 RMK A01 T00900029  RH  066%=      5-min Rain = 0
KRRS 051357Z 31018G24KT 09/03 A30 RMK A01 T00900029  RH  066%=      5-min Rain = 0
KRRS 051358Z 31015KT 09/03 A30 RMK A01 T00910029  RH  065%=      5-min Rain = 0
KRRS 051359Z 31017G22KT 09/03 A30 RMK A01 T00910030  RH  065%=      5-min Rain = 0
KRRS 051400Z 31016G21KT 09/03 A30 RMK A01 T00910030  RH  065%=      5-min Rain = 0
KRRS 051401Z 32017KT 09/03 A3001 RMK A01 T00920030  RH  065%=      5-min Rain = 0
KRRS 051402Z 31018G24KT 09/03 A3001 RMK A01 T00920030  RH  065%=      5-min Rain = 0
KRRS 051403Z 31018KT 09/03 A3001 RMK A01 T00920031  RH  065%=      5-min Rain = 0
KRRS 051404Z 32017G22KT 09/03 A3001 RMK A01 T00930031  RH  066%=      5-min Rain = 0
KRRS 051405Z 31018G23KT 09/03 A3001 RMK A01 T00930032  RH  066%=      5-min Rain = 0
KRRS 051406Z 31021G28KT 09/03 A3001 RMK A01 T00940032  RH  066%=      5-min Rain = 0
KRRS 051407Z 31019G26KT 09/03 A3002 RMK A01 T00940033  RH  066%=      5-min Rain = 0
KRRS 051408Z 31018G24KT 09/03 A3002 RMK A01 T00940033  RH  066%=      5-min Rain = 0
KRRS 051409Z 32022G28KT 09/03 A3002 RMK A01 T00940033  RH  066%=      5-min Rain = 0
KRRS 051410Z 32017KT 10/03 A3002 RMK A01 T00950034  RH  066%=      5-min Rain = 0
KRRS 051411Z 31016G22KT 10/03 A3002 RMK A01 T00950034  RH  066%=      5-min Rain = 0
KRRS 051412Z 32018G24KT 10/03 A3002 RMK A01 T00950034  RH  066%=      5-min Rain = 0
KRRS 051413Z 32020G26KT 10/03 A3002 RMK A01 T00950034  RH  066%=      5-min Rain = 0
KRRS 051414Z 32022G28KT 10/04 A3002 RMK A01 T00950035  RH  066%=      5-min Rain = 0
KRRS 051415Z 32020G26KT 10/04 A3002 RMK A01 T00950035  RH  066%=      5-min Rain = 0
KRRS 051416Z 31019G28KT 10/04 A3003 RMK A01 T00950035  RH  066%=      5-min Rain = 0
KRRS 051417Z 31023G28KT 10/04 A3003 RMK A01 T00950035  RH  066%=      5-min Rain = 0
KRRS 051418Z 31018G27KT 10/04 A3003 RMK A01 T00950035  RH  066%=      5-min Rain = 0
KRRS 051419Z 32019G26KT 10/04 A3003 RMK A01 T00950036  RH  066%=      5-min Rain = 0
KRRS 051420Z 32021G28KT 10/04 A3003 RMK A01 T00950036  RH  066%=      5-min Rain = 0
KRRS 051421Z 31020G26KT 10/04 A3003 RMK A01 T00950036  RH  067%=      5-min Rain = 0
KRRS 051422Z 31021G30KT 10/04 A3003 RMK A01 T00960037  RH  067%=      5-min Rain = 0
KRRS 051423Z 32023G31KT 10/04 A3003 RMK A01 T00960037  RH  067%=      5-min Rain = 0
KRRS 051424Z 32020G28KT 10/04 A3003 RMK A01 T00960037  RH  067%=      5-min Rain = 0
KRRS 051425Z 31023G30KT 10/04 A3003 RMK A01 T00960037  RH  067%=      5-min Rain = 0
KRRS 051426Z 31023G30KT 10/04 A3003 RMK A01 T00960038  RH  067%=      5-min Rain = 0
KRRS 051427Z 31021G28KT 10/04 A3003 RMK A01 T00960038  RH  067%=      5-min Rain = 0
KRRS 051428Z 32024G31KT 10/04 A3003 RMK A01 T00970038  RH  067%=      5-min Rain = 0
KRRS 051429Z 32023G31KT 10/04 A3003 RMK A01 T00970038  RH  067%=      5-min Rain = 0
KRRS 051430Z 33022G30KT 10/04 A3003 RMK A01 T00970038  RH  067%=      5-min Rain = 0
KRRS 051431Z 34020G27KT 10/04 A3003 RMK A01 T00970038  RH  066%=      5-min Rain = 0
KRRS 051432Z 32021G28KT 10/04 A3003 RMK A01 T00980038  RH  066%=      5-min Rain = 0
KRRS 051433Z 32023G28KT 10/04 A3003 RMK A01 T00980038  RH  066%=      5-min Rain = 0
KRRS 051434Z 33021G30KT 10/04 A3003 RMK A01 T00990038  RH  066%=      5-min Rain = 0
KRRS 051435Z 32025G32KT 10/04 A3004 RMK A01 T00990038  RH  066%=      5-min Rain = 0
KRRS 051436Z 33024G32KT 10/04 A3004 RMK A01 T00990038  RH  066%=      5-min Rain = 0
KRRS 051437Z 33024G33KT 10/04 A3004 RMK A01 T00990038  RH  066%=      5-min Rain = 0
KRRS 051438Z 34022G30KT 10/04 A3004 RMK A01 T00990038  RH  066%=      5-min Rain = 0
KRRS 051439Z 33023G31KT 10/04 A3004 RMK A01 T00990038  RH  066%=      5-min Rain = 0
KRRS 051440Z 33024G32KT 10/04 A3004 RMK A01 T00990038  RH  066%=      5-min Rain = 0
KRRS 051441Z 33020G27KT 10/04 A3004 RMK A01 T00990038  RH  066%=      5-min Rain = 0
KRRS 051442Z 33021G29KT 10/04 A3004 RMK A01 T00990038  RH  066%=      5-min Rain = 0
KRRS 051443Z 34019G26KT 10/04 A3004 RMK A01 T00990038  RH  066%=      5-min Rain = 0
KRRS 051444Z 35024G31KT 10/04 A3004 RMK A01 T01000039  RH  065%=      5-min Rain = 0
KRRS 051445Z 35024G33KT 10/04 A3004 RMK A01 T01000038  RH  065%=      5-min Rain = 0
KRRS 051446Z 35025G31KT 10/04 A3004 RMK A01 T00990038  RH  066%=      5-min Rain = 0
KRRS 051447Z 34023G31KT 10/04 A3005 RMK A01 T00990039  RH  066%=      5-min Rain = 0
KRRS 051448Z 35021G30KT 10/04 A3005 RMK A01 T00990039  RH  066%=      5-min Rain = 0
KRRS 051449Z 34025G30KT 10/04 A3005 RMK A01 T01000039  RH  066%=      5-min Rain = 0
KRRS 051450Z 33024G30KT 10/04 A3005 RMK A01 T00990038  RH  066%=      5-min Rain = 0
KRRS 051451Z 33022G30KT 10/04 A3005 RMK A01 T00980038  RH  066%=      5-min Rain = 0
KRRS 051452Z 36024G31KT 10/04 A3005 RMK A01 T00980039  RH  067%=      5-min Rain = 0
KRRS 051453Z 36021G28KT 10/04 A3006 RMK A01 T00970038  RH  067%=      5-min Rain = 0
KRRS 051454Z 36021G27KT 10/04 A3006 RMK A01 T00970038  RH  067%=      5-min Rain = 0
KRRS 051455Z 34023G29KT 10/04 A3006 RMK A01 T00970038  RH  067%=      5-min Rain = 0
KRRS 051456Z 34021G27KT 10/04 A3006 RMK A01 T00970038  RH  067%=      5-min Rain = 0
KRRS 051457Z 34022G31KT 10/04 A3006 RMK A01 T00970038  RH  067%=      5-min Rain = 0
KRRS 051458Z 34022G31KT 10/04 A3006 RMK A01 T00990039  RH  066%=      5-min Rain = 0
KRRS 051459Z 34021G29KT 10/04 A3007 RMK A01 T01000040  RH  066%=      5-min Rain = 0
KRRS 051500Z 35022G30KT 10/04 A3007 RMK A01 T01010040  RH  065%=      5-min Rain = 0
KRRS 051501Z 34021G28KT 10/04 A3007 RMK A01 T01020040  RH  065%=      5-min Rain = 0
KRRS 051502Z 35017G25KT 10/04 A3007 RMK A01 T01030040  RH  065%=      5-min Rain = 0
KRRS 051503Z 35017G25KT 10/04 A3007 RMK A01 T01040041  RH  065%=      5-min Rain = 0
KRRS 051504Z 01018G27KT 11/04 A3007 RMK A01 T01050041  RH  064%=      5-min Rain = 0
KRRS 051505Z 35018G25KT 11/04 A3007 RMK A01 T01060041  RH  064%=      5-min Rain = 0
KRRS 051506Z 36021G31KT 11/04 A3007 RMK A01 T01070041  RH  064%=      5-min Rain = 0
KRRS 051507Z 36023G28KT 11/04 A3007 RMK A01 T01060040  RH  064%=      5-min Rain = 0
KRRS 051508Z 01021G26KT 11/04 A3008 RMK A01 T01050040  RH  064%=      5-min Rain = 0
KRRS 051509Z 00020G27KT 10/04 A3008 RMK A01 T01040040  RH  064%=      5-min Rain = 0
KRRS 051510Z 01020G28KT 10/04 A3008 RMK A01 T01030040  RH  065%=      5-min Rain = 0
KRRS 051511Z 01017G28KT 10/04 A3008 RMK A01 T01030040  RH  065%=      5-min Rain = 0
KRRS 051512Z 01017G25KT 10/04 A3008 RMK A01 T01040041  RH  065%=      5-min Rain = 0
KRRS 051513Z 36019G27KT 11/04 A3008 RMK A01 T01050040  RH  064%=      5-min Rain = 0
KRRS 051514Z 35019G27KT 10/04 A3008 RMK A01 T01040040  RH  065%=      5-min Rain = 0
KRRS 051515Z 00023G29KT 10/04 A3008 RMK A01 T01030040  RH  065%=      5-min Rain = 0
KRRS 051516Z 00022G29KT 10/04 A3008 RMK A01 T01020039  RH  065%=      5-min Rain = 0
KRRS 051517Z 00020G25KT 10/04 A3008 RMK A01 T01020040  RH  065%=      5-min Rain = 0
KRRS 051518Z 35019G27KT 10/04 A3008 RMK A01 T01040040  RH  065%=      5-min Rain = 0
KRRS 051519Z 00021G30KT 11/04 A3008 RMK A01 T01050040  RH  064%=      5-min Rain = 0
KRRS 051520Z 36021G26KT 11/04 A3008 RMK A01 T01050040  RH  064%=      5-min Rain = 0
KRRS 051521Z 35022G29KT 10/04 A3008 RMK A01 T01040040  RH  064%=      5-min Rain = 0
KRRS 051522Z 00022G28KT 10/04 A3008 RMK A01 T01040039  RH  064%=      5-min Rain = 0
KRRS 051523Z 00022G30KT 10/04 A3008 RMK A01 T01020039  RH  065%=      5-min Rain = 0
KRRS 051524Z 36021G29KT 10/04 A3008 RMK A01 T01010039  RH  065%=      5-min Rain = 0
KRRS 051525Z 00020G27KT 10/04 A3008 RMK A01 T01020040  RH  065%=      5-min Rain = 0
KRRS 051526Z 35022G28KT 10/04 A3008 RMK A01 T01040040  RH  064%=      5-min Rain = 0
KRRS 051527Z 35019G25KT 11/04 A3008 RMK A01 T01050040  RH  064%=      5-min Rain = 0
KRRS 051528Z 35019G24KT 11/04 A3008 RMK A01 T01070041  RH  063%=      5-min Rain = 0
KRRS 051529Z 34020G27KT 11/04 A3008 RMK A01 T01090041  RH  063%=      5-min Rain = 0
KRRS 051530Z 35019G26KT 11/04 A3009 RMK A01 T01090040  RH  063%=      5-min Rain = 0
KRRS 051531Z 36016G23KT 11/04 A3009 RMK A01 T01090040  RH  063%=      5-min Rain = 0
KRRS 051532Z 35022G32KT 11/04 A3009 RMK A01 T01080040  RH  063%=      5-min Rain = 0
KRRS 051533Z 35022G30KT 11/04 A3009 RMK A01 T01050039  RH  063%=      5-min Rain = 0
KRRS 051534Z 36020G30KT 10/04 A3009 RMK A01 T01040039  RH  064%=      5-min Rain = 0
KRRS 051535Z 35019G30KT 10/04 A3009 RMK A01 T01040039  RH  064%=      5-min Rain = 0
KRRS 051536Z 35023G30KT 10/04 A3009 RMK A01 T01040040  RH  064%=      5-min Rain = 0
KRRS 051537Z 35021G29KT 10/04 A3009 RMK A01 T01040039  RH  064%=      5-min Rain = 0
KRRS 051538Z 34021G28KT 10/04 A3009 RMK A01 T01040040  RH  064%=      5-min Rain = 0
KRRS 051539Z 35021G29KT 11/04 A3009 RMK A01 T01060040  RH  064%=      5-min Rain = 0
KRRS 051540Z 34019G29KT 11/04 A3009 RMK A01 T01070040  RH  063%=      5-min Rain = 0
KRRS 051541Z 35019G25KT 11/04 A3009 RMK A01 T01080041  RH  063%=      5-min Rain = 0
KRRS 051542Z 00017G27KT 11/04 A3009 RMK A01 T01090041  RH  063%=      5-min Rain = 0
KRRS 051543Z 35022G32KT 11/04 A3009 RMK A01 T01080041  RH  063%=      5-min Rain = 0
KRRS 051544Z 35023G31KT 11/04 A3009 RMK A01 T01080040  RH  063%=      5-min Rain = 0
KRRS 051545Z 35021G28KT 11/04 A3009 RMK A01 T01060040  RH  064%=      5-min Rain = 0
KRRS 051546Z 34020G30KT 11/04 A301 RMK A01 T01070042  RH  064%=      5-min Rain = 0
KRRS 051547Z 35025G32KT 11/04 A301 RMK A01 T01090042  RH  063%=      5-min Rain = 0
KRRS 051548Z 00021G29KT 11/04 A301 RMK A01 T01090042  RH  063%=      5-min Rain = 0
KRRS 051549Z 00025G34KT 11/04 A301 RMK A01 T01080041  RH  063%=      5-min Rain = 0
KRRS 051550Z 35023G30KT 11/04 A301 RMK A01 T01070042  RH  064%=      5-min Rain = 0
KRRS 051551Z 35019G30KT 11/04 A301 RMK A01 T01070042  RH  064%=      5-min Rain = 0
KRRS 051552Z 35022G30KT 11/04 A301 RMK A01 T01090043  RH  064%=      5-min Rain = 0
KRRS 051553Z 34020G29KT 11/04 A301 RMK A01 T01100042  RH  063%=      5-min Rain = 0
KRRS 051554Z 35020G27KT 11/04 A301 RMK A01 T01110042  RH  063%=      5-min Rain = 0
KRRS 051555Z 01022G29KT 11/04 A301 RMK A01 T01110042  RH  063%=      5-min Rain = 0
KRRS 051556Z 01023G30KT 11/04 A301 RMK A01 T01110042  RH  062%=      5-min Rain = 0
KRRS 051557Z 01019G26KT 11/04 A301 RMK A01 T01100042  RH  063%=      5-min Rain = 0
KRRS 051558Z 01019G28KT 11/04 A301 RMK A01 T01090042  RH  063%=      5-min Rain = 0
KRRS 051559Z 00017G22KT 11/04 A3011 RMK A01 T01110043  RH  063%=      5-min Rain = 0
KRRS 051600Z 01023G30KT 12/05 A3011 RMK A01 T01160045  RH  062%=      5-min Rain = 0
KRRS 051601Z 36023G32KT 12/04 A3011 RMK A01 T01150043  RH  061%=      5-min Rain = 0
KRRS 051602Z 01021G29KT 11/04 A3011 RMK A01 T01140042  RH  061%=      5-min Rain = 0
KRRS 051603Z 00018G27KT 11/04 A3011 RMK A01 T01140043  RH  062%=      5-min Rain = 0
KRRS 051604Z 35020G27KT 12/04 A3011 RMK A01 T01150044  RH  061%=      5-min Rain = 0
KRRS 051605Z 35021G30KT 12/04 A3011 RMK A01 T01160043  RH  061%=      5-min Rain = 0
KRRS 051606Z 00022G30KT 12/04 A3011 RMK A01 T01150041  RH  061%=      5-min Rain = 0
KRRS 051607Z 00019G25KT 11/04 A3011 RMK A01 T01120041  RH  061%=      5-min Rain = 0
KRRS 051608Z 35019G27KT 11/04 A3011 RMK A01 T01120041  RH  062%=      5-min Rain = 0
KRRS 051609Z 34023G30KT 11/04 A3011 RMK A01 T01130042  RH  062%=      5-min Rain = 0
KRRS 051610Z 35025G30KT 11/04 A3011 RMK A01 T01130041  RH  061%=      5-min Rain = 0
KRRS 051611Z 36023G30KT 11/04 A3011 RMK A01 T01120041  RH  061%=      5-min Rain = 0
KRRS 051612Z 33020G31KT 11/04 A3011 RMK A01 T01130043  RH  062%=      5-min Rain = 0
KRRS 051613Z 34022G30KT 12/04 A3011 RMK A01 T01160043  RH  061%=      5-min Rain = 0
KRRS 051614Z 35023G30KT 12/04 A3012 RMK A01 T01170044  RH  061%=      5-min Rain = 0
KRRS 051615Z 33025G32KT 12/04 A3012 RMK A01 T01180042  RH  060%=      5-min Rain = 0
KRRS 051616Z 35022G29KT 12/04 A3012 RMK A01 T01150042  RH  061%=      5-min Rain = 0
KRRS 051617Z 00022G31KT 11/04 A3012 RMK A01 T01140043  RH  062%=      5-min Rain = 0
KRRS 051618Z 35024G33KT 12/04 A3012 RMK A01 T01160044  RH  061%=      5-min Rain = 0
KRRS 051619Z 35025G33KT 12/04 A3012 RMK A01 T01170044  RH  061%=      5-min Rain = 0
KRRS 051620Z 34025G34KT 12/04 A3012 RMK A01 T01170044  RH  061%=      5-min Rain = 0
KRRS 051621Z 34021G30KT 12/04 A3012 RMK A01 T01170044  RH  061%=      5-min Rain = 0
KRRS 051622Z 34022G30KT 12/05 A3012 RMK A01 T01180045  RH  061%=      5-min Rain = 0
KRRS 051623Z 36022G28KT 12/04 A3012 RMK A01 T01180044  RH  061%=      5-min Rain = 0
KRRS 051624Z 00019G25KT 12/05 A3012 RMK A01 T01190045  RH  061%=      5-min Rain = 0
KRRS 051625Z 34018G28KT 12/05 A3012 RMK A01 T01220047  RH  060%=      5-min Rain = 0
KRRS 051626Z 36022G30KT 13/05 A3012 RMK A01 T01260048  RH  059%=      5-min Rain = 0
KRRS 051627Z 36021G27KT 13/05 A3012 RMK A01 T01250046  RH  058%=      5-min Rain = 0
KRRS 051628Z 01022G30KT 12/05 A3012 RMK A01 T01240046  RH  059%=      5-min Rain = 0
KRRS 051629Z 34020G29KT 13/05 A3012 RMK A01 T01250046  RH  059%=      5-min Rain = 0
KRRS 051630Z 34021G30KT 13/05 A3012 RMK A01 T01250046  RH  059%=      5-min Rain = 0
KRRS 051631Z 35024G30KT 13/05 A3012 RMK A01 T01250046  RH  058%=      5-min Rain = 0
KRRS 051632Z 35022G29KT 12/04 A3012 RMK A01 T01230044  RH  059%=      5-min Rain = 0
KRRS 051633Z 01024G31KT 12/05 A3012 RMK A01 T01210046  RH  060%=      5-min Rain = 0
KRRS 051634Z 36022G29KT 12/05 A3012 RMK A01 T01220046  RH  060%=      5-min Rain = 0
KRRS 051635Z 35021G30KT 12/05 A3012 RMK A01 T01220047  RH  060%=      5-min Rain = 0
KRRS 051636Z 35021G30KT 12/05 A3013 RMK A01 T01240047  RH  059%=      5-min Rain = 0
KRRS 051637Z 34020G28KT 12/05 A3013 RMK A01 T01230046  RH  059%=      5-min Rain = 0
KRRS 051638Z 35019G25KT 12/05 A3013 RMK A01 T01200046  RH  060%=      5-min Rain = 0
KRRS 051639Z 35020G28KT 12/05 A3013 RMK A01 T01190046  RH  061%=      5-min Rain = 0
KRRS 051640Z 34023G31KT 12/05 A3013 RMK A01 T01170045  RH  061%=      5-min Rain = 0
KRRS 051641Z 33022G29KT 11/04 A3013 RMK A01 T01130044  RH  062%=      5-min Rain = 0
KRRS 051642Z 33024G33KT 11/04 A3013 RMK A01 T01110044  RH  063%=      5-min Rain = 0
KRRS 051643Z 33023G30KT 11/05 A3013 RMK A01 T01090045  RH  064%=      5-min Rain = 0
KRRS 051644Z 34023G29KT 11/05 A3013 RMK A01 T01080045  RH  065%=      5-min Rain = 0
KRRS 051645Z 34020G28KT 11/05 A3013 RMK A01 T01070045  RH  065%=      5-min Rain = 0
KRRS 051646Z 35020G25KT 11/05 A3013 RMK A01 T01080046  RH  065%=      5-min Rain = 0
KRRS 051647Z 35019G26KT 11/05 A3013 RMK A01 T01090047  RH  065%=      5-min Rain = 0
KRRS 051648Z 35019G27KT 11/05 A3013 RMK A01 T01100048  RH  065%=      5-min Rain = 0
KRRS 051649Z 33022G29KT 11/05 A3013 RMK A01 T01110048  RH  065%=      5-min Rain = 0
KRRS 051650Z 33017G24KT 11/05 A3013 RMK A01 T01110048  RH  065%=      5-min Rain = 0
KRRS 051651Z 33022G30KT 11/05 A3013 RMK A01 T01140051  RH  065%=      5-min Rain = 0
KRRS 051652Z 34020G28KT 11/05 A3013 RMK A01 T01140048  RH  064%=      5-min Rain = 0
KRRS 051653Z 33021G29KT 11/05 A3013 RMK A01 T01140050  RH  065%=      5-min Rain = 0
KRRS 051654Z 34019G26KT 12/05 A3013 RMK A01 T01160051  RH  064%=      5-min Rain = 0
KRRS 051655Z 35019G24KT 12/05 A3013 RMK A01 T01180051  RH  063%=      5-min Rain = 0
KRRS 051656Z 36020G27KT 12/05 A3013 RMK A01 T01180049  RH  063%=      5-min Rain = 0
KRRS 051657Z 35020G27KT 12/05 A3013 RMK A01 T01160050  RH  064%=      5-min Rain = 0
KRRS 051658Z 34022G28KT 12/05 A3013 RMK A01 T01170050  RH  064%=      5-min Rain = 0
KRRS 051659Z 33017G26KT 12/05 A3013 RMK A01 T01200052  RH  063%=      5-min Rain = 0
KRRS 051700Z 34017G23KT 12/05 A3013 RMK A01 T01230051  RH  061%=      5-min Rain = 0
KRRS 051701Z 32014G20KT 13/05 A3013 RMK A01 T01250052  RH  061%=      5-min Rain = 0
KRRS 051702Z 34014G21KT 13/05 A3013 RMK A01 T01290053  RH  060%=      5-min Rain = 0
KRRS 051703Z 33017KT 13/05 A3013 RMK A01 T01300050  RH  058%=      5-min Rain = 0
KRRS 051704Z 34019G24KT 13/05 A3013 RMK A01 T01280050  RH  059%=      5-min Rain = 0
KRRS 051705Z 34019G24KT 13/05 A3013 RMK A01 T01280048  RH  058%=      5-min Rain = 0
KRRS 051706Z 32016G22KT 13/05 A3013 RMK A01 T01260049  RH  060%=      5-min Rain = 0
KRRS 051707Z 32020G26KT 13/05 A3013 RMK A01 T01290050  RH  059%=      5-min Rain = 0
KRRS 051708Z 33017G24KT 13/05 A3013 RMK A01 T01290050  RH  059%=      5-min Rain = 0
KRRS 051709Z 32019G28KT 13/05 A3013 RMK A01 T01300049  RH  058%=      5-min Rain = 0
KRRS 051710Z 32018G23KT 13/05 A3013 RMK A01 T01280049  RH  059%=      5-min Rain = 0
KRRS 051711Z 31019G24KT 13/05 A3013 RMK A01 T01260049  RH  059%=      5-min Rain = 0
KRRS 051712Z 31018G25KT 13/05 A3013 RMK A01 T01260049  RH  060%=      5-min Rain = 0
KRRS 051713Z 31017G22KT 13/05 A3013 RMK A01 T01270050  RH  060%=      5-min Rain = 0
KRRS 051714Z 33019G26KT 13/05 A3013 RMK A01 T01280051  RH  059%=      5-min Rain = 0
KRRS 051715Z 33018G25KT 13/05 A3013 RMK A01 T01280052  RH  060%=      5-min Rain = 0
KRRS 051716Z 32022G27KT 13/05 A3013 RMK A01 T01280051  RH  060%=      5-min Rain = 0
KRRS 051717Z 31022G30KT 13/05 A3014 RMK A01 T01260052  RH  061%=      5-min Rain = 0
KRRS 051718Z 31022G31KT 13/05 A3014 RMK A01 T01250053  RH  061%=      5-min Rain = 0
KRRS 051719Z 31020G29KT 12/05 A3014 RMK A01 T01240053  RH  062%=      5-min Rain = 0
KRRS 051720Z 32022G28KT 12/05 A3014 RMK A01 T01230053  RH  062%=      5-min Rain = 0
KRRS 051721Z 32024G30KT 12/05 A3014 RMK A01 T01190053  RH  064%=      5-min Rain = 0
KRRS 051722Z 32024G30KT 12/05 A3014 RMK A01 T01150053  RH  066%=      5-min Rain = 0
KRRS 051723Z 31025G30KT 11/05 A3015 RMK A01 T01140054  RH  067%=      5-min Rain = 0
KRRS 051724Z 31021G28KT 11/05 A3015 RMK A01 T01120053  RH  067%=      5-min Rain = 0
KRRS 051725Z 31023G31KT 11/05 A3015 RMK A01 T01120053  RH  067%=      5-min Rain = 0
KRRS 051726Z 31020G30KT 11/05 A3015 RMK A01 T01100053  RH  068%=      5-min Rain = 0
KRRS 051727Z 32020G31KT 11/05 A3015 RMK A01 T01100053  RH  068%=      5-min Rain = 0
KRRS 051728Z 32024G30KT 11/05 A3015 RMK A01 T01100053  RH  068%=      5-min Rain = 0
KRRS 051729Z 31024G29KT 11/05 A3015 RMK A01 T01100054  RH  069%=      5-min Rain = 0
KRRS 051730Z 31022G28KT 11/06 A3015 RMK A01 T01100055  RH  069%=      5-min Rain = 0
KRRS 051731Z 31021G29KT 11/05 A3015 RMK A01 T01100054  RH  069%=      5-min Rain = 0
KRRS 051732Z 31020G26KT 11/05 A3015 RMK A01 T01110054  RH  068%=      5-min Rain = 0
KRRS 051733Z 31020G25KT 11/05 A3015 RMK A01 T01110054  RH  068%=      5-min Rain = 0
KRRS 051734Z 33019G26KT 11/05 A3015 RMK A01 T01110054  RH  068%=      5-min Rain = 0
KRRS 051735Z 32019G25KT 11/05 A3015 RMK A01 T01110054  RH  068%=      5-min Rain = 0
KRRS 051736Z 31023G31KT 11/05 A3015 RMK A01 T01110054  RH  068%=      5-min Rain = 0
KRRS 051737Z 31021G30KT 11/05 A3015 RMK A01 T01100054  RH  068%=      5-min Rain = 0
KRRS 051738Z 32018G23KT 11/05 A3015 RMK A01 T01090054  RH  069%=      5-min Rain = 0
KRRS 051739Z 32022G30KT 11/06 A3015 RMK A01 T01100055  RH  069%=      5-min Rain = 0
KRRS 051740Z 32023G31KT 11/06 A3015 RMK A01 T01100055  RH  068%=      5-min Rain = 0
KRRS 051741Z 33023G31KT 11/06 A3015 RMK A01 T01100055  RH  068%=      5-min Rain = 0
KRRS 051742Z 34021G30KT 11/06 A3015 RMK A01 T01110055  RH  068%=      5-min Rain = 0
KRRS 051743Z 32021G29KT 11/05 A3015 RMK A01 T01120054  RH  068%=      5-min Rain = 0
KRRS 051744Z 34022G30KT 11/05 A3015 RMK A01 T01120054  RH  068%=      5-min Rain = 0
KRRS 051745Z 33017G23KT 11/05 A3015 RMK A01 T01120054  RH  067%=      5-min Rain = 0
KRRS 051746Z 33022G30KT 11/05 A3015 RMK A01 T01120053  RH  067%=      5-min Rain = 0
KRRS 051747Z 32024G30KT 11/05 A3015 RMK A01 T01110053  RH  067%=      5-min Rain = 0
KRRS 051748Z 33024G29KT 11/05 A3015 RMK A01 T01090053  RH  068%=      5-min Rain = 0
KRRS 051749Z 34018G25KT 11/05 A3015 RMK A01 T01080053  RH  069%=      5-min Rain = 0
KRRS 051750Z 34018G23KT 11/05 A3015 RMK A01 T01080053  RH  069%=      5-min Rain = 0
KRRS 051751Z 31016G25KT 11/05 A3015 RMK A01 T01080053  RH  069%=      5-min Rain = 0
KRRS 051752Z 32021G26KT 11/05 A3015 RMK A01 T01090053  RH  068%=      5-min Rain = 0
KRRS 051753Z 32020G25KT 11/05 A3015 RMK A01 T01090053  RH  068%=      5-min Rain = 0
KRRS 051754Z 33020G27KT 11/05 A3015 RMK A01 T01080053  RH  069%=      5-min Rain = 0
KRRS 051755Z 32020G27KT 11/05 A3015 RMK A01 T01080053  RH  069%=      5-min Rain = 0
KRRS 051756Z 33019KT 11/05 A3015 RMK A01 T01080053  RH  069%=      5-min Rain = 0
KRRS 051757Z 31016G24KT 11/05 A3015 RMK A01 T01080053  RH  069%=      5-min Rain = 0
KRRS 051758Z 31020G27KT 11/05 A3015 RMK A01 T01080053  RH  068%=      5-min Rain = 0
KRRS 051759Z 31020G27KT 11/05 A3015 RMK A01 T01080052  RH  069%=      5-min Rain = 0
KRRS 051800Z 31015G21KT 11/05 A3015 RMK A01 T01070053  RH  069%=      5-min Rain = 0
KRRS 051801Z 32016G21KT 11/05 A3015 RMK A01 T01070052  RH  069%=      5-min Rain = 0
KRRS 051802Z 32020G26KT 11/05 A3015 RMK A01 T01070050  RH  068%=      5-min Rain = 0
KRRS 051803Z 31025G33KT 11/05 A3015 RMK A01 T01070046  RH  066%=      5-min Rain = 0
KRRS 051804Z 32023G31KT 11/04 A3015 RMK A01 T01050043  RH  066%=      5-min Rain = 0
KRRS 051805Z 32027G34KT 10/04 A3015 RMK A01 T01040044  RH  066%=      5-min Rain = 0
KRRS 051806Z 31025G31KT 10/04 A3016 RMK A01 T01030044  RH  067%=      5-min Rain = 0
KRRS 051807Z 32027G37KT 10/05 A3016 RMK A01 T01040045  RH  067%=      5-min Rain = 0
KRRS 051808Z 32027G36KT 10/05 A3016 RMK A01 T01040046  RH  067%=      5-min Rain = 0
KRRS 051809Z 33023G30KT 11/05 A3016 RMK A01 T01050046  RH  067%=      5-min Rain = 0
KRRS 051810Z 34026G32KT 11/05 A3016 RMK A01 T01050047  RH  067%=      5-min Rain = 0
KRRS 051811Z 34021G30KT 11/05 A3016 RMK A01 T01050048  RH  068%=      5-min Rain = 0
KRRS 051812Z 35018G24KT 11/05 A3016 RMK A01 T01050048  RH  068%=      5-min Rain = 0
KRRS 051813Z 34020G27KT 11/05 A3016 RMK A01 T01060048  RH  068%=      5-min Rain = 0
KRRS 051814Z 34024G31KT 11/05 A3016 RMK A01 T01060048  RH  068%=      5-min Rain = 0
KRRS 051815Z 32025G35KT 10/05 A3016 RMK A01 T01040048  RH  068%=      5-min Rain = 0
KRRS 051816Z 33025G33KT 10/05 A3016 RMK A01 T01030047  RH  069%=      5-min Rain = 0
KRRS 051817Z 34026G33KT 10/05 A3016 RMK A01 T01020047  RH  069%=      5-min Rain = 0
KRRS 051818Z 34023G30KT 10/05 A3016 RMK A01 T01000047  RH  069%=      5-min Rain = 0
KRRS 051819Z 36021G29KT 10/05 A3017 RMK A01 T01000047  RH  070%=      5-min Rain = 0
KRRS 051820Z 01021G27KT 10/05 A3017 RMK A01 T01000048  RH  070%=      5-min Rain = 0
KRRS 051821Z 00023G32KT 10/05 A3017 RMK A01 T00990050  RH  071%=      5-min Rain = 0
KRRS 051822Z 00021G30KT 10/05 A3017 RMK A01 T00980051  RH  072%=      5-min Rain = 0
KRRS 051823Z 00024G32KT 10/05 A3017 RMK A01 T00970050  RH  073%=      5-min Rain = 0
KRRS 051824Z 00021G28KT 10/05 A3017 RMK A01 T00960050  RH  073%=      5-min Rain = 0
KRRS 051825Z 01020G30KT 10/05 A3017 RMK A01 T00960051  RH  073%=      5-min Rain = 0
KRRS 051826Z 01024G30KT 10/05 A3017 RMK A01 T00960051  RH  074%=      5-min Rain = 0
KRRS 051827Z 01020G29KT 10/05 A3017 RMK A01 T00950052  RH  074%=      5-min Rain = 0
KRRS 051828Z 01018G27KT 10/05 A3017 RMK A01 T00950052  RH  074%=      5-min Rain = 0
KRRS 051829Z 01020G28KT 10/05 A3017 RMK A01 T00960052  RH  074%=      5-min Rain = 0
KRRS 051830Z 01020G26KT 10/05 A3017 RMK A01 T00960052  RH  074%=      5-min Rain = 0
KRRS 051831Z 01020G28KT 10/05 A3017 RMK A01 T00960052  RH  074%=      5-min Rain = 0
KRRS 051832Z 01018G26KT 10/05 A3017 RMK A01 T00970052  RH  074%=      5-min Rain = 0
KRRS 051833Z 01017G24KT 10/05 A3017 RMK A01 T00970052  RH  073%=      5-min Rain = 0
KRRS 051834Z 01023G30KT 10/05 A3017 RMK A01 T00980051  RH  072%=      5-min Rain = 0
KRRS 051835Z 01020G30KT 10/05 A3017 RMK A01 T00980048  RH  071%=      5-min Rain = 0
KRRS 051836Z 01017G23KT 10/05 A3017 RMK A01 T00990049  RH  071%=      5-min Rain = 0
KRRS 051837Z 00020G27KT 10/05 A3017 RMK A01 T00990049  RH  071%=      5-min Rain = 0
KRRS 051838Z 36019G27KT 10/05 A3017 RMK A01 T01000048  RH  070%=      5-min Rain = 0
KRRS 051839Z 00018G23KT 10/05 A3017 RMK A01 T01020048  RH  069%=      5-min Rain = 0
KRRS 051840Z 36020G26KT 10/05 A3017 RMK A01 T01030048  RH  068%=      5-min Rain = 0
KRRS 051841Z 36018G26KT 10/05 A3017 RMK A01 T01040047  RH  068%=      5-min Rain = 0
KRRS 051842Z 36021G27KT 11/05 A3017 RMK A01 T01050047  RH  067%=      5-min Rain = 0
KRRS 051843Z 01018G26KT 11/05 A3017 RMK A01 T01060047  RH  067%=      5-min Rain = 0
KRRS 051844Z 01019G25KT 11/05 A3017 RMK A01 T01070047  RH  066%=      5-min Rain = 0
KRRS 051845Z 01022G28KT 11/05 A3017 RMK A01 T01080047  RH  066%=      5-min Rain = 0
KRRS 051846Z 01022G29KT 11/05 A3017 RMK A01 T01080046  RH  066%=      5-min Rain = 0
KRRS 051847Z 01021G29KT 11/05 A3017 RMK A01 T01070047  RH  066%=      5-min Rain = 0
KRRS 051848Z 01019G27KT 11/05 A3017 RMK A01 T01070047  RH  066%=      5-min Rain = 0
KRRS 051849Z 01020G30KT 11/05 A3017 RMK A01 T01080047  RH  066%=      5-min Rain = 0
KRRS 051850Z 01022G29KT 11/05 A3017 RMK A01 T01080046  RH  066%=      5-min Rain = 0
KRRS 051851Z 01025G31KT 11/05 A3017 RMK A01 T01070045  RH  066%=      5-min Rain = 0
KRRS 051852Z 01023G30KT 11/05 A3017 RMK A01 T01050045  RH  066%=      5-min Rain = 0
KRRS 051853Z 01021G29KT 10/05 A3017 RMK A01 T01040045  RH  067%=      5-min Rain = 0
KRRS 051854Z 01020G27KT 10/05 A3017 RMK A01 T01040045  RH  067%=      5-min Rain = 0
KRRS 051855Z 01022G29KT 10/05 A3017 RMK A01 T01040045  RH  067%=      5-min Rain = 0
KRRS 051856Z 01021G27KT 10/05 A3017 RMK A01 T01040045  RH  067%=      5-min Rain = 0
KRRS 051857Z 02019G26KT 11/05 A3017 RMK A01 T01050048  RH  067%=      5-min Rain = 0
KRRS 051858Z 02017G23KT 11/05 A3017 RMK A01 T01070050  RH  068%=      5-min Rain = 0
KRRS 051859Z 02019G25KT 11/05 A3017 RMK A01 T01080051  RH  068%=      5-min Rain = 0
KRRS 051900Z 02018G29KT 11/05 A3017 RMK A01 T01080050  RH  068%=      5-min Rain = 0
KRRS 051901Z 02018G24KT 11/05 A3017 RMK A01 T01070050  RH  068%=      5-min Rain = 0
KRRS 051902Z 02018G23KT 11/05 A3017 RMK A01 T01070050  RH  068%=      5-min Rain = 0
KRRS 051903Z 35016G21KT 11/05 A3017 RMK A01 T01060049  RH  068%=      5-min Rain = 0
KRRS 051904Z 00014G19KT 11/05 A3017 RMK A01 T01070048  RH  067%=      5-min Rain = 0
KRRS 051905Z 01015G24KT 11/05 A3017 RMK A01 T01090048  RH  066%=      5-min Rain = 0
KRRS 051906Z 02018G23KT 11/05 A3017 RMK A01 T01090048  RH  066%=      5-min Rain = 0
KRRS 051907Z 01016KT 11/05 A3017 RMK A01 T01070047  RH  066%=      5-min Rain = 0
KRRS 051908Z 02016G23KT 11/05 A3017 RMK A01 T01060048  RH  068%=      5-min Rain = 0
KRRS 051909Z 02018G24KT 11/05 A3017 RMK A01 T01060048  RH  067%=      5-min Rain = 0
KRRS 051910Z 02018G25KT 11/05 A3017 RMK A01 T01060046  RH  066%=      5-min Rain = 0
KRRS 051911Z 02018G23KT 11/05 A3017 RMK A01 T01050045  RH  066%=      5-min Rain = 0
KRRS 051912Z 01014G20KT 10/05 A3017 RMK A01 T01040045  RH  067%=      5-min Rain = 0
KRRS 051913Z 02012KT 10/05 A3017 RMK A01 T01040046  RH  067%=      5-min Rain = 0
KRRS 051914Z 02017G23KT 10/05 A3017 RMK A01 T01040046  RH  067%=      5-min Rain = 0
KRRS 051915Z 02017G22KT 10/05 A3017 RMK A01 T01040045  RH  067%=      5-min Rain = 0
KRRS 051916Z 01018G25KT 10/05 A3017 RMK A01 T01030045  RH  067%=      5-min Rain = 0
KRRS 051917Z 02017G22KT 10/05 A3017 RMK A01 T01030045  RH  067%=      5-min Rain = 0
KRRS 051918Z 02015G21KT 10/05 A3017 RMK A01 T01030045  RH  067%=      5-min Rain = 0
KRRS 051919Z 01018G23KT 10/05 A3017 RMK A01 T01030045  RH  067%=      5-min Rain = 0
KRRS 051920Z 01016G21KT 10/05 A3017 RMK A01 T01040045  RH  067%=      5-min Rain = 0
KRRS 051921Z 01018KT 10/05 A3017 RMK A01 T01040045  RH  067%=      5-min Rain = 0
KRRS 051922Z 01017KT 10/05 A3017 RMK A01 T01040045  RH  067%=      5-min Rain = 0
KRRS 051923Z 01014G20KT 11/05 A3017 RMK A01 T01050045  RH  067%=      5-min Rain = 0
KRRS 051924Z 01016KT 11/05 A3017 RMK A01 T01060045  RH  066%=      5-min Rain = 0
KRRS 051925Z 01013G18KT 11/05 A3017 RMK A01 T01060045  RH  066%=      5-min Rain = 0
KRRS 051926Z 00013G19KT 11/05 A3017 RMK A01 T01070045  RH  066%=      5-min Rain = 0
KRRS 051927Z 01018G23KT 11/04 A3017 RMK A01 T01070044  RH  065%=      5-min Rain = 0
KRRS 051928Z 00021G28KT 11/04 A3017 RMK A01 T01070042  RH  064%=      5-min Rain = 0
KRRS 051929Z 00020G26KT 11/04 A3017 RMK A01 T01070040  RH  063%=      5-min Rain = 0
KRRS 051930Z 36021G28KT 11/04 A3017 RMK A01 T01060040  RH  063%=      5-min Rain = 0
KRRS 051931Z 00019G26KT 11/04 A3017 RMK A01 T01070040  RH  063%=      5-min Rain = 0
KRRS 051932Z 01018G25KT 11/04 A3017 RMK A01 T01070040  RH  063%=      5-min Rain = 0
KRRS 051933Z 02018G23KT 11/04 A3017 RMK A01 T01090040  RH  062%=      5-min Rain = 0
KRRS 051934Z 01016G21KT 11/04 A3017 RMK A01 T01090040  RH  062%=      5-min Rain = 0
KRRS 051935Z 01019G28KT 11/04 A3017 RMK A01 T01100039  RH  061%=      5-min Rain = 0
KRRS 051936Z 01022G27KT 11/04 A3017 RMK A01 T01100037  RH  060%=      5-min Rain = 0
KRRS 051937Z 00019G25KT 11/04 A3017 RMK A01 T01090037  RH  061%=      5-min Rain = 0
KRRS 051938Z 35018G26KT 11/04 A3017 RMK A01 T01090037  RH  061%=      5-min Rain = 0
KRRS 051939Z 00021G28KT 11/04 A3017 RMK A01 T01090036  RH  061%=      5-min Rain = 0
KRRS 051940Z 00023G32KT 11/04 A3017 RMK A01 T01100036  RH  060%=      5-min Rain = 0
KRRS 051941Z 00022G30KT 11/04 A3017 RMK A01 T01100035  RH  060%=      5-min Rain = 0
KRRS 051942Z 36023G35KT 11/04 A3017 RMK A01 T01100035  RH  060%=      5-min Rain = 0
KRRS 051943Z 00026G32KT 11/04 A3017 RMK A01 T01100035  RH  060%=      5-min Rain = 0
KRRS 051944Z 36021G30KT 11/03 A3017 RMK A01 T01100034  RH  060%=      5-min Rain = 0
KRRS 051945Z 36022G31KT 11/03 A3017 RMK A01 T01100034  RH  060%=      5-min Rain = 0
KRRS 051946Z 35025G32KT 11/03 A3017 RMK A01 T01110034  RH  059%=      5-min Rain = 0
KRRS 051947Z 00022G31KT 11/03 A3017 RMK A01 T01110034  RH  059%=      5-min Rain = 0
KRRS 051948Z 00025G31KT 11/03 A3017 RMK A01 T01110034  RH  059%=      5-min Rain = 0
KRRS 051949Z 01022G29KT 11/04 A3017 RMK A01 T01100035  RH  060%=      5-min Rain = 0
KRRS 051950Z 35023G30KT 11/04 A3017 RMK A01 T01110035  RH  060%=      5-min Rain = 0
KRRS 051951Z 00025G37KT 11/03 A3017 RMK A01 T01110034  RH  059%=      5-min Rain = 0
KRRS 051952Z 01024G30KT 11/03 A3017 RMK A01 T01110034  RH  059%=      5-min Rain = 0
KRRS 051953Z 00022G30KT 11/04 A3017 RMK A01 T01110035  RH  059%=      5-min Rain = 0
KRRS 051954Z 36025G31KT 11/04 A3017 RMK A01 T01110035  RH  059%=      5-min Rain = 0
KRRS 051955Z 36025G31KT 11/04 A3017 RMK A01 T01100035  RH  060%=      5-min Rain = 0
KRRS 051956Z 35021G26KT 11/04 A3017 RMK A01 T01100035  RH  060%=      5-min Rain = 0
KRRS 051957Z 36018G26KT 11/04 A3017 RMK A01 T01110035  RH  060%=      5-min Rain = 0
KRRS 051958Z 36024G33KT 11/04 A3017 RMK A01 T01120035  RH  059%=      5-min Rain = 0
KRRS 051959Z 35019G28KT 11/03 A3017 RMK A01 T01120034  RH  059%=      5-min Rain = 0
KRRS 052000Z 34023G31KT 11/04 A3017 RMK A01 T01130035  RH  059%=      5-min Rain = 0
KRRS 052001Z 35023G33KT 11/04 A3017 RMK A01 T01130035  RH  059%=      5-min Rain = 0
KRRS 052002Z 34021G27KT 11/04 A3017 RMK A01 T01130035  RH  059%=      5-min Rain = 0
KRRS 052003Z 35021G27KT 11/04 A3017 RMK A01 T01120035  RH  059%=      5-min Rain = 0
KRRS 052004Z 00019G24KT 11/04 A3017 RMK A01 T01120035  RH  059%=      5-min Rain = 0
KRRS 052005Z 01020G30KT 11/04 A3017 RMK A01 T01110036  RH  060%=      5-min Rain = 0
KRRS 052006Z 01022G30KT 11/04 A3017 RMK A01 T01110036  RH  060%=      5-min Rain = 0
KRRS 052007Z 00020G30KT 11/04 A3017 RMK A01 T01100036  RH  060%=      5-min Rain = 0
KRRS 052008Z 35022G29KT 11/04 A3017 RMK A01 T01090036  RH  060%=      5-min Rain = 0
KRRS 052009Z 36018G25KT 11/04 A3017 RMK A01 T01090036  RH  061%=      5-min Rain = 0
KRRS 052010Z 00018G28KT 11/04 A3017 RMK A01 T01100037  RH  061%=      5-min Rain = 0
KRRS 052011Z 35020G29KT 11/04 A3017 RMK A01 T01110037  RH  060%=      5-min Rain = 0
KRRS 052012Z 00021G27KT 11/04 A3017 RMK A01 T01100037  RH  060%=      5-min Rain = 0
KRRS 052013Z 36020G30KT 11/04 A3017 RMK A01 T01110037  RH  060%=      5-min Rain = 0
KRRS 052014Z 00019G27KT 11/04 A3017 RMK A01 T01110035  RH  060%=      5-min Rain = 0
KRRS 052015Z 00020G26KT 11/04 A3017 RMK A01 T01110036  RH  060%=      5-min Rain = 0
KRRS 052016Z 01021G28KT 11/04 A3017 RMK A01 T01110035  RH  060%=      5-min Rain = 0
KRRS 052017Z 01025G31KT 11/04 A3017 RMK A01 T01110035  RH  060%=      5-min Rain = 0
KRRS 052018Z 01022G29KT 11/04 A3017 RMK A01 T01110036  RH  060%=      5-min Rain = 0
KRRS 052019Z 01022G31KT 11/04 A3017 RMK A01 T01100036  RH  060%=      5-min Rain = 0
KRRS 052020Z 00021G30KT 11/04 A3017 RMK A01 T01100036  RH  060%=      5-min Rain = 0
KRRS 052021Z 00022G29KT 11/04 A3017 RMK A01 T01100037  RH  060%=      5-min Rain = 0
KRRS 052022Z 01023G30KT 11/04 A3017 RMK A01 T01110036  RH  060%=      5-min Rain = 0
KRRS 052023Z 00023G30KT 11/04 A3017 RMK A01 T01100037  RH  060%=      5-min Rain = 0
KRRS 052024Z 01023G30KT 11/04 A3017 RMK A01 T01100037  RH  060%=      5-min Rain = 0
KRRS 052025Z 00019G27KT 11/04 A3018 RMK A01 T01100037  RH  061%=      5-min Rain = 0
KRRS 052026Z 00020G27KT 11/04 A3018 RMK A01 T01100037  RH  061%=      5-min Rain = 0
KRRS 052027Z 01019G25KT 11/04 A3018 RMK A01 T01100037  RH  061%=      5-min Rain = 0
KRRS 052028Z 35021G28KT 11/04 A3018 RMK A01 T01110038  RH  061%=      5-min Rain = 0
KRRS 052029Z 35018G26KT 11/04 A3018 RMK A01 T01110038  RH  061%=      5-min Rain = 0
KRRS 052030Z 00019G27KT 11/04 A3018 RMK A01 T01110037  RH  060%=      5-min Rain = 0
KRRS 052031Z 01021G30KT 11/04 A3018 RMK A01 T01120038  RH  060%=      5-min Rain = 0
KRRS 052032Z 00019G26KT 11/04 A3018 RMK A01 T01120038  RH  060%=      5-min Rain = 0
KRRS 052033Z 35021G28KT 11/04 A3018 RMK A01 T01120038  RH  060%=      5-min Rain = 0
KRRS 052034Z 35018G25KT 11/04 A3018 RMK A01 T01130038  RH  060%=      5-min Rain = 0
KRRS 052035Z 35022G28KT 11/04 A3018 RMK A01 T01130039  RH  060%=      5-min Rain = 0
KRRS 052036Z 36019G26KT 11/04 A3018 RMK A01 T01130039  RH  060%=      5-min Rain = 0
KRRS 052037Z 00016G23KT 11/04 A3018 RMK A01 T01130040  RH  061%=      5-min Rain = 0
KRRS 052038Z 02021G29KT 12/04 A3018 RMK A01 T01150041  RH  060%=      5-min Rain = 0
KRRS 052039Z 00020G30KT 12/04 A3018 RMK A01 T01160041  RH  060%=      5-min Rain = 0
KRRS 052040Z 00020G28KT 12/04 A3018 RMK A01 T01160041  RH  060%=      5-min Rain = 0
KRRS 052041Z 36021G29KT 12/04 A3018 RMK A01 T01160041  RH  060%=      5-min Rain = 0
KRRS 052042Z 00026G32KT 12/04 A3018 RMK A01 T01150038  RH  059%=      5-min Rain = 0
KRRS 052043Z 36020G30KT 11/04 A3018 RMK A01 T01130037  RH  060%=      5-min Rain = 0
KRRS 052044Z 35021G28KT 11/04 A3018 RMK A01 T01120038  RH  060%=      5-min Rain = 0
KRRS 052045Z 00017G30KT 11/04 A3018 RMK A01 T01120039  RH  061%=      5-min Rain = 0
KRRS 052046Z 01021G29KT 11/04 A3018 RMK A01 T01120039  RH  061%=      5-min Rain = 0
KRRS 052047Z 01020G28KT 11/04 A3018 RMK A01 T01110039  RH  061%=      5-min Rain = 0
KRRS 052048Z 01022G28KT 11/04 A3018 RMK A01 T01100039  RH  062%=      5-min Rain = 0
KRRS 052049Z 01019G30KT 11/04 A3018 RMK A01 T01090040  RH  062%=      5-min Rain = 0
KRRS 052050Z 35019G28KT 11/04 A3018 RMK A01 T01090039  RH  062%=      5-min Rain = 0
KRRS 052051Z 01017KT 11/04 A3018 RMK A01 T01090039  RH  062%=      5-min Rain = 0
KRRS 052052Z 01022G30KT 11/04 A3018 RMK A01 T01100040  RH  062%=      5-min Rain = 0
KRRS 052053Z 01024G31KT 11/04 A3018 RMK A01 T01100040  RH  062%=      5-min Rain = 0
KRRS 052054Z 01022G30KT 11/04 A3018 RMK A01 T01090040  RH  062%=      5-min Rain = 0
KRRS 052055Z 00023G31KT 11/04 A3018 RMK A01 T01080040  RH  063%=      5-min Rain = 0
KRRS 052056Z 00024G32KT 11/04 A3018 RMK A01 T01070040  RH  063%=      5-min Rain = 0
KRRS 052057Z 01022G30KT 11/04 A3018 RMK A01 T01060040  RH  064%=      5-min Rain = 0
KRRS 052058Z 00024G31KT 11/04 A3018 RMK A01 T01060041  RH  064%=      5-min Rain = 0
KRRS 052059Z 01021G29KT 11/04 A3018 RMK A01 T01050041  RH  065%=      5-min Rain = 0
KRRS 052100Z 01021G27KT 11/04 A3018 RMK A01 T01050042  RH  065%=      5-min Rain = 0
KRRS 052101Z 01022G29KT 11/04 A3018 RMK A01 T01050042  RH  065%=      5-min Rain = 0
KRRS 052102Z 01018G26KT 11/04 A3018 RMK A01 T01060043  RH  065%=      5-min Rain = 0
KRRS 052103Z 01018G23KT 11/04 A3018 RMK A01 T01070043  RH  065%=      5-min Rain = 0
KRRS 052104Z 01016G21KT 11/04 A3018 RMK A01 T01090044  RH  064%=      5-min Rain = 0
KRRS 052105Z 01017G22KT 11/04 A3018 RMK A01 T01100044  RH  064%=      5-min Rain = 0
KRRS 052106Z 01019G26KT 11/05 A3018 RMK A01 T01110045  RH  064%=      5-min Rain = 0
KRRS 052107Z 01020G27KT 11/04 A3018 RMK A01 T01100044  RH  064%=      5-min Rain = 0
KRRS 052108Z 01021G26KT 11/04 A3018 RMK A01 T01080044  RH  065%=      5-min Rain = 0
KRRS 052109Z 01019G25KT 11/05 A3018 RMK A01 T01070045  RH  065%=      5-min Rain = 0
KRRS 052110Z 01016G22KT 11/05 A3019 RMK A01 T01070045  RH  065%=      5-min Rain = 0
KRRS 052111Z 01014G19KT 11/05 A3019 RMK A01 T01080046  RH  065%=      5-min Rain = 0
KRRS 052112Z 01019G25KT 11/05 A3018 RMK A01 T01100046  RH  065%=      5-min Rain = 0
KRRS 052113Z 01018G24KT 11/05 A3019 RMK A01 T01100046  RH  064%=      5-min Rain = 0
KRRS 052114Z 36020G28KT 11/05 A3019 RMK A01 T01100046  RH  065%=      5-min Rain = 0
KRRS 052115Z 01019G27KT 11/05 A3019 RMK A01 T01090045  RH  065%=      5-min Rain = 0
KRRS 052116Z 01019G25KT 11/05 A3019 RMK A01 T01090046  RH  065%=      5-min Rain = 0
KRRS 052117Z 01019G24KT 11/05 A3019 RMK A01 T01100046  RH  065%=      5-min Rain = 0
KRRS 052118Z 01020G29KT 11/05 A3019 RMK A01 T01110046  RH  064%=      5-min Rain = 0
KRRS 052119Z 01016G26KT 11/05 A3019 RMK A01 T01100046  RH  065%=      5-min Rain = 0
KRRS 052120Z 01017G25KT 11/05 A3019 RMK A01 T01110047  RH  065%=      5-min Rain = 0
KRRS 052121Z 01021G28KT 11/05 A3019 RMK A01 T01120047  RH  064%=      5-min Rain = 0
KRRS 052122Z 01020G27KT 11/05 A3019 RMK A01 T01120047  RH  064%=      5-min Rain = 0
KRRS 052123Z 00019G29KT 11/05 A3019 RMK A01 T01120047  RH  064%=      5-min Rain = 0
KRRS 052124Z 01019G27KT 11/05 A3019 RMK A01 T01110046  RH  064%=      5-min Rain = 0
KRRS 052125Z 36021G27KT 11/05 A3019 RMK A01 T01100046  RH  065%=      5-min Rain = 0
KRRS 052126Z 35020G26KT 11/05 A3019 RMK A01 T01100046  RH  065%=      5-min Rain = 0
KRRS 052127Z 35017G23KT 11/05 A3019 RMK A01 T01090047  RH  065%=      5-min Rain = 0
KRRS 052128Z 00013G19KT 11/05 A3019 RMK A01 T01110048  RH  065%=      5-min Rain = 0
KRRS 052129Z 01016G23KT 11/05 A3019 RMK A01 T01130048  RH  064%=      5-min Rain = 0
KRRS 052130Z 36017G26KT 11/05 A3019 RMK A01 T01130048  RH  064%=      5-min Rain = 0
KRRS 052131Z 01021G27KT 11/05 A3019 RMK A01 T01120046  RH  064%=      5-min Rain = 0
KRRS 052132Z 01018G25KT 11/05 A3019 RMK A01 T01100046  RH  065%=      5-min Rain = 0
KRRS 052133Z 02019G25KT 11/05 A3019 RMK A01 T01100047  RH  065%=      5-min Rain = 0
KRRS 052134Z 01016G23KT 11/05 A302 RMK A01 T01100047  RH  065%=      5-min Rain = 0
KRRS 052135Z 35015G22KT 11/05 A302 RMK A01 T01100047  RH  065%=      5-min Rain = 0
KRRS 052136Z 36016G23KT 11/05 A302 RMK A01 T01110047  RH  065%=      5-min Rain = 0
KRRS 052137Z 00017G23KT 11/05 A302 RMK A01 T01120047  RH  064%=      5-min Rain = 0
KRRS 052138Z 01014G21KT 11/05 A302 RMK A01 T01130047  RH  064%=      5-min Rain = 0
KRRS 052139Z 36014G19KT 12/05 A302 RMK A01 T01150048  RH  064%=      5-min Rain = 0
KRRS 052140Z 35013G19KT 12/05 A302 RMK A01 T01170049  RH  063%=      5-min Rain = 0
KRRS 052141Z 01016G21KT 12/05 A302 RMK A01 T01190048  RH  062%=      5-min Rain = 0
KRRS 052142Z 35017G25KT 12/05 A3019 RMK A01 T01200047  RH  061%=      5-min Rain = 0
KRRS 052143Z 36016G23KT 12/05 A3019 RMK A01 T01210048  RH  061%=      5-min Rain = 0
KRRS 052144Z 00020G25KT 12/05 A3019 RMK A01 T01240049  RH  060%=      5-min Rain = 0
KRRS 052145Z 00019G26KT 12/05 A302 RMK A01 T01230047  RH  060%=      5-min Rain = 0
KRRS 052146Z 36019G29KT 12/05 A3019 RMK A01 T01220047  RH  060%=      5-min Rain = 0
KRRS 052147Z 34015G23KT 12/05 A3019 RMK A01 T01230048  RH  060%=      5-min Rain = 0
KRRS 052148Z 36019G25KT 13/05 A3019 RMK A01 T01250048  RH  059%=      5-min Rain = 0
KRRS 052149Z 35018G26KT 13/05 A302 RMK A01 T01250047  RH  059%=      5-min Rain = 0
KRRS 052150Z 36022G27KT 12/05 A3019 RMK A01 T01240045  RH  059%=      5-min Rain = 0
KRRS 052151Z 00022KT 12/04 A302 RMK A01 T01210044  RH  059%=      5-min Rain = 0
KRRS 052152Z 01022G30KT 12/04 A302 RMK A01 T01200043  RH  060%=      5-min Rain = 0
KRRS 052153Z 01017G26KT 12/04 A302 RMK A01 T01200043  RH  059%=      5-min Rain = 0
KRRS 052154Z 01021G27KT 12/04 A302 RMK A01 T01220044  RH  059%=      5-min Rain = 0
KRRS 052155Z 01019G24KT 12/04 A302 RMK A01 T01230044  RH  059%=      5-min Rain = 0
KRRS 052156Z 35020G27KT 13/05 A302 RMK A01 T01250046  RH  059%=      5-min Rain = 0
KRRS 052157Z 35020G27KT 12/04 A302 RMK A01 T01240044  RH  058%=      5-min Rain = 0
KRRS 052158Z 01018G24KT 12/04 A302 RMK A01 T01210043  RH  059%=      5-min Rain = 0
KRRS 052159Z 01022G30KT 12/04 A302 RMK A01 T01200042  RH  059%=      5-min Rain = 0
KRRS 052200Z 35021G29KT 12/04 A302 RMK A01 T01180041  RH  059%=      5-min Rain = 0
KRRS 052201Z 36023G30KT 12/04 A302 RMK A01 T01160040  RH  060%=      5-min Rain = 0
KRRS 052202Z 36019G27KT 12/04 A302 RMK A01 T01150040  RH  060%=      5-min Rain = 0
KRRS 052203Z 00014G19KT 12/04 A302 RMK A01 T01150041  RH  060%=      5-min Rain = 0
KRRS 052204Z 01018G25KT 12/04 A302 RMK A01 T01170042  RH  060%=      5-min Rain = 0
KRRS 052205Z 36018G25KT 12/04 A302 RMK A01 T01160041  RH  060%=      5-min Rain = 0
KRRS 052206Z 36018G25KT 12/04 A302 RMK A01 T01160041  RH  060%=      5-min Rain = 0
KRRS 052207Z 35016KT 12/04 A302 RMK A01 T01150041  RH  060%=      5-min Rain = 0
KRRS 052208Z 00016G23KT 12/04 A302 RMK A01 T01160042  RH  060%=      5-min Rain = 0
KRRS 052209Z 01014KT 12/04 A302 RMK A01 T01160042  RH  060%=      5-min Rain = 0
KRRS 052210Z 02016G24KT 12/04 A302 RMK A01 T01170042  RH  060%=      5-min Rain = 0
KRRS 052211Z 02019KT 12/04 A302 RMK A01 T01180040  RH  059%=      5-min Rain = 0
KRRS 052212Z 01015G20KT 12/04 A302 RMK A01 T01170040  RH  059%=      5-min Rain = 0
KRRS 052213Z 01014G21KT 12/04 A302 RMK A01 T01170040  RH  059%=      5-min Rain = 0
KRRS 052214Z 01014G23KT 12/04 A3021 RMK A01 T01180040  RH  059%=      5-min Rain = 0
KRRS 052215Z 00016G23KT 12/04 A3021 RMK A01 T01180040  RH  059%=      5-min Rain = 0
KRRS 052216Z 00019G27KT 12/04 A3021 RMK A01 T01170039  RH  059%=      5-min Rain = 0
KRRS 052217Z 00020G26KT 12/04 A3021 RMK A01 T01160038  RH  059%=      5-min Rain = 0
KRRS 052218Z 01020G27KT 12/04 A3021 RMK A01 T01150038  RH  059%=      5-min Rain = 0
KRRS 052219Z 00018G24KT 11/04 A3021 RMK A01 T01140039  RH  060%=      5-min Rain = 0
KRRS 052220Z 01016G23KT 11/04 A3021 RMK A01 T01140039  RH  060%=      5-min Rain = 0
KRRS 052221Z 00016G22KT 12/04 A3021 RMK A01 T01150040  RH  060%=      5-min Rain = 0
KRRS 052222Z 01019G26KT 12/04 A3021 RMK A01 T01150039  RH  059%=      5-min Rain = 0
KRRS 052223Z 02018G25KT 12/04 A3021 RMK A01 T01150039  RH  059%=      5-min Rain = 0
KRRS 052224Z 01018G24KT 11/04 A3021 RMK A01 T01140039  RH  060%=      5-min Rain = 0
KRRS 052225Z 01020G27KT 11/04 A3021 RMK A01 T01140039  RH  060%=      5-min Rain = 0
KRRS 052226Z 01021KT 11/04 A3021 RMK A01 T01140039  RH  060%=      5-min Rain = 0
KRRS 052227Z 01015G21KT 11/04 A3021 RMK A01 T01130039  RH  060%=      5-min Rain = 0
KRRS 052228Z 01014G21KT 11/04 A3021 RMK A01 T01140040  RH  061%=      5-min Rain = 0
KRRS 052229Z 01016G21KT 12/04 A3021 RMK A01 T01150040  RH  060%=      5-min Rain = 0
KRRS 052230Z 01014G19KT 12/04 A3021 RMK A01 T01150039  RH  060%=      5-min Rain = 0
KRRS 052231Z 02015G22KT 12/04 A3021 RMK A01 T01160039  RH  059%=      5-min Rain = 0
KRRS 052232Z 02018KT 12/04 A3021 RMK A01 T01170038  RH  058%=      5-min Rain = 0
KRRS 052233Z 02016G25KT 12/04 A3021 RMK A01 T01170037  RH  058%=      5-min Rain = 0
KRRS 052234Z 02020G26KT 12/04 A3021 RMK A01 T01170037  RH  058%=      5-min Rain = 0
KRRS 052235Z 01019G25KT 12/04 A3021 RMK A01 T01170036  RH  058%=      5-min Rain = 0
KRRS 052236Z 01018G25KT 12/04 A3021 RMK A01 T01170036  RH  058%=      5-min Rain = 0
KRRS 052237Z 01017G24KT 12/04 A3021 RMK A01 T01170035  RH  057%=      5-min Rain = 0
KRRS 052238Z 02017G25KT 12/04 A3021 RMK A01 T01170036  RH  058%=      5-min Rain = 0
KRRS 052239Z 01017G23KT 12/04 A3021 RMK A01 T01170036  RH  057%=      5-min Rain = 0
KRRS 052240Z 01017G24KT 12/04 A3021 RMK A01 T01170035  RH  057%=      5-min Rain = 0
KRRS 052241Z 02017G24KT 12/04 A3021 RMK A01 T01160035  RH  057%=      5-min Rain = 0
KRRS 052242Z 01019G26KT 12/04 A3021 RMK A01 T01160035  RH  058%=      5-min Rain = 0
KRRS 052243Z 02020G27KT 12/04 A3021 RMK A01 T01150035  RH  058%=      5-min Rain = 0
KRRS 052244Z 01021G28KT 12/03 A3021 RMK A01 T01150034  RH  058%=      5-min Rain = 0
KRRS 052245Z 01019G26KT 12/03 A3021 RMK A01 T01150034  RH  058%=      5-min Rain = 0
KRRS 052246Z 01019G25KT 12/03 A3022 RMK A01 T01150034  RH  058%=      5-min Rain = 0
KRRS 052247Z 02015G21KT 12/03 A3022 RMK A01 T01150034  RH  058%=      5-min Rain = 0
KRRS 052248Z 01019G26KT 12/03 A3022 RMK A01 T01150034  RH  058%=      5-min Rain = 0
KRRS 052249Z 01021G28KT 12/03 A3022 RMK A01 T01150034  RH  058%=      5-min Rain = 0
KRRS 052250Z 01019G25KT 11/03 A3022 RMK A01 T01140034  RH  058%=      5-min Rain = 0
KRRS 052251Z 02019G25KT 11/03 A3022 RMK A01 T01140034  RH  058%=      5-min Rain = 0
KRRS 052252Z 02018G24KT 11/03 A3022 RMK A01 T01140034  RH  058%=      5-min Rain = 0
KRRS 052253Z 01015G21KT 11/03 A3022 RMK A01 T01140034  RH  058%=      5-min Rain = 0
KRRS 052254Z 01016G21KT 11/03 A3022 RMK A01 T01140034  RH  058%=      5-min Rain = 0
KRRS 052255Z 01016G22KT 11/03 A3022 RMK A01 T01140034  RH  058%=      5-min Rain = 0
KRRS 052256Z 01012KT 11/03 A3022 RMK A01 T01140034  RH  058%=      5-min Rain = 0
KRRS 052257Z 01013G20KT 11/03 A3022 RMK A01 T01140034  RH  058%=      5-min Rain = 0
KRRS 052258Z 02016G23KT 11/03 A3022 RMK A01 T01140034  RH  058%=      5-min Rain = 0
KRRS 052259Z 02018G24KT 11/03 A3022 RMK A01 T01140034  RH  058%=      5-min Rain = 0
KRRS 052300Z 01016G23KT 11/03 A3022 RMK A01 T01140033  RH  058%=      5-min Rain = 0
KRRS 052301Z 01015G20KT 11/03 A3022 RMK A01 T01140034  RH  058%=      5-min Rain = 0
KRRS 052302Z 02017KT 11/03 A3022 RMK A01 T01140034  RH  058%=      5-min Rain = 0
KRRS 052303Z 01014G19KT 11/03 A3022 RMK A01 T01140034  RH  058%=      5-min Rain = 0
KRRS 052304Z 00013G18KT 11/03 A3022 RMK A01 T01140034  RH  058%=      5-min Rain = 0
KRRS 052305Z 01018KT 11/03 A3022 RMK A01 T01140034  RH  058%=      5-min Rain = 0
KRRS 052306Z 01014G20KT 11/03 A3022 RMK A01 T01140034  RH  058%=      5-min Rain = 0
KRRS 052307Z 02014KT 11/04 A3022 RMK A01 T01140035  RH  058%=      5-min Rain = 0
KRRS 052308Z 02018G24KT 11/03 A3022 RMK A01 T01140034  RH  058%=      5-min Rain = 0
KRRS 052309Z 02019KT 11/03 A3022 RMK A01 T01140034  RH  058%=      5-min Rain = 0
KRRS 052310Z 02017G25KT 11/03 A3022 RMK A01 T01130034  RH  058%=      5-min Rain = 0
KRRS 052311Z 02015G22KT 11/03 A3022 RMK A01 T01130034  RH  058%=      5-min Rain = 0
KRRS 052312Z 02015G21KT 11/03 A3022 RMK A01 T01130034  RH  058%=      5-min Rain = 0
KRRS 052313Z 02015G21KT 11/03 A3022 RMK A01 T01130034  RH  058%=      5-min Rain = 0
KRRS 052314Z 02016G21KT 11/03 A3022 RMK A01 T01130034  RH  058%=      5-min Rain = 0
KRRS 052315Z 02016G22KT 11/03 A3022 RMK A01 T01130033  RH  058%=      5-min Rain = 0
KRRS 052316Z 02017G23KT 11/03 A3022 RMK A01 T01130034  RH  058%=      5-min Rain = 0
KRRS 052317Z 01014G22KT 11/03 A3022 RMK A01 T01130034  RH  058%=      5-min Rain = 0
KRRS 052318Z 01016G23KT 11/03 A3022 RMK A01 T01130034  RH  058%=      5-min Rain = 0
KRRS 052319Z 01016G21KT 11/03 A3022 RMK A01 T01130034  RH  058%=      5-min Rain = 0
KRRS 052320Z 01017G23KT 11/03 A3022 RMK A01 T01130034  RH  058%=      5-min Rain = 0
KRRS 052321Z 02017G24KT 11/03 A3022 RMK A01 T01130034  RH  058%=      5-min Rain = 0
KRRS 052322Z 01016G24KT 11/03 A3022 RMK A01 T01130034  RH  058%=      5-min Rain = 0
KRRS 052323Z 02016KT 11/03 A3022 RMK A01 T01130034  RH  058%=      5-min Rain = 0
KRRS 052324Z 01018G24KT 11/03 A3022 RMK A01 T01120034  RH  058%=      5-min Rain = 0
KRRS 052325Z 02014KT 11/03 A3022 RMK A01 T01120034  RH  059%=      5-min Rain = 0
KRRS 052326Z 02012G17KT 11/04 A3022 RMK A01 T01120035  RH  059%=      5-min Rain = 0
KRRS 052327Z 02012KT 11/04 A3022 RMK A01 T01120035  RH  059%=      5-min Rain = 0
KRRS 052328Z 02014KT 11/04 A3022 RMK A01 T01120035  RH  059%=      5-min Rain = 0
KRRS 052329Z 02011G17KT 11/04 A3022 RMK A01 T01120035  RH  059%=      5-min Rain = 0
KRRS 052330Z 02014KT 11/04 A3023 RMK A01 T01120035  RH  059%=      5-min Rain = 0
KRRS 052331Z 02013KT 11/04 A3023 RMK A01 T01120035  RH  059%=      5-min Rain = 0
KRRS 052332Z 02013KT 11/04 A3023 RMK A01 T01120035  RH  059%=      5-min Rain = 0
KRRS 052333Z 03013G18KT 11/04 A3023 RMK A01 T01120035  RH  059%=      5-min Rain = 0
KRRS 052334Z 02014KT 11/04 A3023 RMK A01 T01120035  RH  059%=      5-min Rain = 0
KRRS 052335Z 02013KT 11/04 A3023 RMK A01 T01120035  RH  059%=      5-min Rain = 0
KRRS 052336Z 02013G18KT 11/04 A3023 RMK A01 T01120035  RH  059%=      5-min Rain = 0
KRRS 052337Z 02017KT 11/04 A3023 RMK A01 T01120035  RH  059%=      5-min Rain = 0
KRRS 052338Z 02017KT 11/04 A3023 RMK A01 T01130035  RH  059%=      5-min Rain = 0
KRRS 052339Z 02013G19KT 11/04 A3023 RMK A01 T01130035  RH  059%=      5-min Rain = 0
KRRS 052340Z 01017G24KT 11/04 A3023 RMK A01 T01140036  RH  059%=      5-min Rain = 0
KRRS 052341Z 02017G22KT 11/04 A3023 RMK A01 T01140035  RH  058%=      5-min Rain = 0
KRRS 052342Z 02017G22KT 12/04 A3023 RMK A01 T01150036  RH  058%=      5-min Rain = 0
KRRS 052343Z 02015G20KT 12/04 A3023 RMK A01 T01150036  RH  058%=      5-min Rain = 0
KRRS 052344Z 03013G19KT 12/04 A3023 RMK A01 T01150036  RH  058%=      5-min Rain = 0
KRRS 052345Z 02014G20KT 12/04 A3023 RMK A01 T01160036  RH  058%=      5-min Rain = 0
KRRS 052346Z 02015G20KT 12/04 A3023 RMK A01 T01160036  RH  058%=      5-min Rain = 0
KRRS 052347Z 02016KT 12/04 A3023 RMK A01 T01170036  RH  058%=      5-min Rain = 0
KRRS 052348Z 02013KT 12/04 A3023 RMK A01 T01170037  RH  058%=      5-min Rain = 0
KRRS 052349Z 02015G22KT 12/04 A3023 RMK A01 T01170037  RH  058%=      5-min Rain = 0
KRRS 052350Z 02013KT 12/04 A3023 RMK A01 T01170037  RH  058%=      5-min Rain = 0
KRRS 052351Z 02013G18KT 12/04 A3023 RMK A01 T01160037  RH  058%=      5-min Rain = 0
KRRS 052352Z 02012G17KT 12/04 A3023 RMK A01 T01160037  RH  058%=      5-min Rain = 0
KRRS 052353Z 01010G16KT 12/04 A3023 RMK A01 T01160037  RH  058%=      5-min Rain = 0
KRRS 052354Z 01015KT 12/04 A3023 RMK A01 T01160037  RH  058%=      5-min Rain = 0
KRRS 052355Z 02013G18KT 12/04 A3023 RMK A01 T01150037  RH  059%=      5-min Rain = 0
KRRS 052356Z 01012KT 12/04 A3023 RMK A01 T01150036  RH  058%=      5-min Rain = 0
KRRS 052357Z 02013G21KT 12/04 A3023 RMK A01 T01150036  RH  058%=      5-min Rain = 0
KRRS 052358Z 02015G20KT 12/04 A3023 RMK A01 T01150036  RH  058%=      5-min Rain = 0
KRRS 052359Z 01016G23KT 12/04 A3023 RMK A01 T01150036  RH  058%=      5-min Rain = 0
KRRS 060000Z 02018G28KT 12/04 A3023 RMK A01 T01150036  RH  058%=      5-min Rain = 0
KRRS 060001Z 02016G22KT 12/04 A3023 RMK A01 T01150035  RH  058%=      5-min Rain = 0
KRRS 060002Z 02013G18KT 12/04 A3023 RMK A01 T01150035  RH  058%=      5-min Rain = 0
KRRS 060003Z 02016G22KT 12/04 A3023 RMK A01 T01150035  RH  058%=      5-min Rain = 0
KRRS 060004Z 02017G25KT 11/04 A3023 RMK A01 T01140036  RH  058%=      5-min Rain = 0
KRRS 060005Z 02016KT 11/04 A3023 RMK A01 T01140035  RH  059%=      5-min Rain = 0
KRRS 060006Z 02014G22KT 11/04 A3023 RMK A01 T01130035  RH  059%=      5-min Rain = 0
KRRS 060007Z 02014G23KT 11/04 A3023 RMK A01 T01130035  RH  059%=      5-min Rain = 0
KRRS 060008Z 02013KT 11/04 A3024 RMK A01 T01130035  RH  059%=      5-min Rain = 0
KRRS 060009Z 02013G19KT 11/04 A3023 RMK A01 T01120035  RH  059%=      5-min Rain = 0
KRRS 060010Z 02012KT 11/04 A3024 RMK A01 T01120035  RH  059%=      5-min Rain = 0
KRRS 060011Z 02013KT 11/04 A3024 RMK A01 T01110036  RH  060%=      5-min Rain = 0
KRRS 060012Z 02012KT 11/04 A3024 RMK A01 T01110036  RH  060%=      5-min Rain = 0
KRRS 060013Z 02013KT 11/04 A3024 RMK A01 T01110036  RH  060%=      5-min Rain = 0
KRRS 060014Z 02013KT 11/04 A3024 RMK A01 T01100036  RH  060%=      5-min Rain = 0
KRRS 060015Z 02011KT 11/04 A3024 RMK A01 T01100036  RH  060%=      5-min Rain = 0
KRRS 060016Z 03014G22KT 11/04 A3024 RMK A01 T01090036  RH  061%=      5-min Rain = 0
KRRS 060017Z 03013G19KT 11/04 A3024 RMK A01 T01090036  RH  061%=      5-min Rain = 0
KRRS 060018Z 03017G22KT 11/04 A3024 RMK A01 T01090036  RH  061%=      5-min Rain = 0
KRRS 060019Z 03017KT 11/04 A3024 RMK A01 T01090036  RH  061%=      5-min Rain = 0
KRRS 060020Z 03015KT 11/04 A3024 RMK A01 T01090036  RH  061%=      5-min Rain = 0
KRRS 060021Z 03012KT 11/04 A3024 RMK A01 T01080036  RH  061%=      5-min Rain = 0
KRRS 060022Z 02012G17KT 11/04 A3024 RMK A01 T01070035  RH  061%=      5-min Rain = 0
KRRS 060023Z 03012G18KT 11/04 A3024 RMK A01 T01070035  RH  061%=      5-min Rain = 0
KRRS 060024Z 03016KT 11/04 A3024 RMK A01 T01060036  RH  062%=      5-min Rain = 0
KRRS 060025Z 03015KT 11/04 A3024 RMK A01 T01060036  RH  062%=      5-min Rain = 0
KRRS 060026Z 03015KT 11/04 A3024 RMK A01 T01060036  RH  062%=      5-min Rain = 0
KRRS 060027Z 03013G18KT 11/04 A3024 RMK A01 T01060037  RH  062%=      5-min Rain = 0
KRRS 060028Z 03012KT 11/04 A3024 RMK A01 T01060037  RH  062%=      5-min Rain = 0
KRRS 060029Z 03015KT 11/04 A3024 RMK A01 T01060037  RH  062%=      5-min Rain = 0
KRRS 060030Z 03015G21KT 11/04 A3024 RMK A01 T01050037  RH  063%=      5-min Rain = 0
KRRS 060031Z 03013KT 11/04 A3024 RMK A01 T01050037  RH  062%=      5-min Rain = 0
KRRS 060032Z 03013G18KT 11/04 A3025 RMK A01 T01050037  RH  062%=      5-min Rain = 0
KRRS 060033Z 03013G19KT 11/04 A3024 RMK A01 T01050037  RH  063%=      5-min Rain = 0
KRRS 060034Z 03015KT 10/04 A3024 RMK A01 T01040037  RH  063%=      5-min Rain = 0
KRRS 060035Z 03014KT 10/04 A3025 RMK A01 T01040037  RH  063%=      5-min Rain = 0
KRRS 060036Z 03013KT 10/04 A3025 RMK A01 T01040037  RH  063%=      5-min Rain = 0
KRRS 060037Z 03013G18KT 10/04 A3025 RMK A01 T01040037  RH  063%=      5-min Rain = 0
KRRS 060038Z 03012KT 10/04 A3025 RMK A01 T01040038  RH  064%=      5-min Rain = 0
KRRS 060039Z 03011KT 10/04 A3025 RMK A01 T01030038  RH  064%=      5-min Rain = 0
KRRS 060040Z 03012KT 10/04 A3025 RMK A01 T01030038  RH  064%=      5-min Rain = 0
KRRS 060041Z 03011KT 10/04 A3025 RMK A01 T01030038  RH  064%=      5-min Rain = 0
KRRS 060042Z 03010KT 10/04 A3025 RMK A01 T01020038  RH  064%=      5-min Rain = 0
KRRS 060043Z 03009KT 10/04 A3025 RMK A01 T01010038  RH  065%=      5-min Rain = 0
KRRS 060044Z 03011KT 10/04 A3025 RMK A01 T01000038  RH  065%=      5-min Rain = 0
KRRS 060045Z 03010KT 10/04 A3025 RMK A01 T01000038  RH  065%=      5-min Rain = 0
KRRS 060046Z 03010KT 10/04 A3025 RMK A01 T01000038  RH  065%=      5-min Rain = 0
KRRS 060047Z 03010KT 10/04 A3025 RMK A01 T01000038  RH  065%=      5-min Rain = 0
KRRS 060048Z 03010KT 10/04 A3025 RMK A01 T01000038  RH  065%=      5-min Rain = 0
KRRS 060049Z 03009KT 10/04 A3025 RMK A01 T00990038  RH  066%=      5-min Rain = 0
KRRS 060050Z 03008KT 10/04 A3025 RMK A01 T00990038  RH  066%=      5-min Rain = 0
KRRS 060051Z 03009KT 10/04 A3025 RMK A01 T00980037  RH  066%=      5-min Rain = 0
KRRS 060052Z 02009KT 10/04 A3025 RMK A01 T00970038  RH  067%=      5-min Rain = 0
KRRS 060053Z 03009KT 10/04 A3025 RMK A01 T00970038  RH  067%=      5-min Rain = 0
KRRS 060054Z 03011KT 10/04 A3025 RMK A01 T00970038  RH  067%=      5-min Rain = 0
KRRS 060055Z 03010KT 10/04 A3026 RMK A01 T00970038  RH  067%=      5-min Rain = 0
KRRS 060056Z 03008KT 10/04 A3026 RMK A01 T00970038  RH  067%=      5-min Rain = 0
KRRS 060057Z 03009KT 10/04 A3026 RMK A01 T00970038  RH  067%=      5-min Rain = 0
KRRS 060058Z 03009KT 10/04 A3026 RMK A01 T00960038  RH  067%=      5-min Rain = 0
KRRS 060059Z 03009KT 10/04 A3026 RMK A01 T00950038  RH  067%=      5-min Rain = 0
KRRS 060100Z 03010KT 10/04 A3026 RMK A01 T00950038  RH  068%=      5-min Rain = 0
KRRS 060101Z 03010KT 09/04 A3026 RMK A01 T00940038  RH  068%=      5-min Rain = 0
KRRS 060102Z 03009KT 09/04 A3026 RMK A01 T00940038  RH  068%=      5-min Rain = 0
KRRS 060103Z 03009KT 09/04 A3026 RMK A01 T00930037  RH  068%=      5-min Rain = 0
KRRS 060104Z 03010KT 09/04 A3026 RMK A01 T00930037  RH  068%=      5-min Rain = 0
KRRS 060105Z 03009KT 09/04 A3026 RMK A01 T00930037  RH  068%=      5-min Rain = 0
KRRS 060106Z 03010KT 09/04 A3026 RMK A01 T00930037  RH  068%=      5-min Rain = 0
KRRS 060107Z 03010KT 09/04 A3026 RMK A01 T00920037  RH  068%=      5-min Rain = 0
KRRS 060108Z 03009KT 09/04 A3026 RMK A01 T00920037  RH  068%=      5-min Rain = 0
KRRS 060109Z 03009KT 09/04 A3026 RMK A01 T00920037  RH  068%=      5-min Rain = 0
KRRS 060110Z 03009KT 09/04 A3026 RMK A01 T00910037  RH  069%=      5-min Rain = 0
KRRS 060111Z 03010KT 09/04 A3026 RMK A01 T00910037  RH  069%=      5-min Rain = 0
KRRS 060112Z 03009KT 09/04 A3026 RMK A01 T00910037  RH  069%=      5-min Rain = 0
KRRS 060113Z 03009KT 09/04 A3026 RMK A01 T00910037  RH  069%=      5-min Rain = 0
KRRS 060114Z 03008KT 09/04 A3026 RMK A01 T00900037  RH  069%=      5-min Rain = 0
KRRS 060115Z 03008KT 09/04 A3026 RMK A01 T00900037  RH  069%=      5-min Rain = 0
KRRS 060116Z 03009KT 09/04 A3026 RMK A01 T00890037  RH  070%=      5-min Rain = 0
KRRS 060117Z 03008KT 09/04 A3026 RMK A01 T00890037  RH  070%=      5-min Rain = 0
KRRS 060118Z 03008KT 09/04 A3026 RMK A01 T00890036  RH  069%=      5-min Rain = 0
KRRS 060119Z 03008KT 09/04 A3026 RMK A01 T00890037  RH  070%=      5-min Rain = 0
KRRS 060120Z 04008KT 09/04 A3026 RMK A01 T00880036  RH  070%=      5-min Rain = 0
KRRS 060121Z 03008KT 09/04 A3026 RMK A01 T00880036  RH  070%=      5-min Rain = 0
KRRS 060122Z 03006KT 09/04 A3027 RMK A01 T00870036  RH  070%=      5-min Rain = 0
KRRS 060123Z 03006KT 09/04 A3027 RMK A01 T00870036  RH  070%=      5-min Rain = 0
KRRS 060124Z 03006KT 09/04 A3027 RMK A01 T00860036  RH  070%=      5-min Rain = 0
KRRS 060125Z 03006KT 09/04 A3027 RMK A01 T00860036  RH  071%=      5-min Rain = 0
KRRS 060126Z 03006KT 09/04 A3027 RMK A01 T00850036  RH  071%=      5-min Rain = 0
KRRS 060127Z 03006KT 09/04 A3027 RMK A01 T00850035  RH  071%=      5-min Rain = 0
KRRS 060128Z 03006KT 08/04 A3027 RMK A01 T00840035  RH  071%=      5-min Rain = 0
KRRS 060129Z 03005KT 08/04 A3027 RMK A01 T00840035  RH  071%=      5-min Rain = 0
KRRS 060130Z 03006KT 08/04 A3027 RMK A01 T00840035  RH  072%=      5-min Rain = 0
KRRS 060131Z 03006KT 08/04 A3027 RMK A01 T00830035  RH  072%=      5-min Rain = 0
KRRS 060132Z 03005KT 08/04 A3027 RMK A01 T00820035  RH  072%=      5-min Rain = 0
KRRS 060133Z 04005KT 08/04 A3027 RMK A01 T00820035  RH  072%=      5-min Rain = 0
KRRS 060134Z 03006KT 08/03 A3027 RMK A01 T00810034  RH  072%=      5-min Rain = 0
KRRS 060135Z 03005KT 08/03 A3027 RMK A01 T00800034  RH  073%=      5-min Rain = 0
KRRS 060136Z 03005KT 08/03 A3027 RMK A01 T00800034  RH  073%=      5-min Rain = 0
KRRS 060137Z 03006KT 08/03 A3027 RMK A01 T00790033  RH  073%=      5-min Rain = 0
KRRS 060138Z 03006KT 08/03 A3027 RMK A01 T00780033  RH  073%=      5-min Rain = 0
KRRS 060139Z 03005KT 08/03 A3027 RMK A01 T00780033  RH  074%=      5-min Rain = 0
KRRS 060140Z 03005KT 08/03 A3027 RMK A01 T00780033  RH  074%=      5-min Rain = 0
KRRS 060141Z 03006KT 08/03 A3027 RMK A01 T00780033  RH  074%=      5-min Rain = 0
KRRS 060142Z 03006KT 08/03 A3027 RMK A01 T00770033  RH  074%=      5-min Rain = 0
KRRS 060143Z 03006KT 08/03 A3027 RMK A01 T00760033  RH  074%=      5-min Rain = 0
KRRS 060144Z 03006KT 08/03 A3027 RMK A01 T00760032  RH  074%=      5-min Rain = 0
KRRS 060145Z 02006KT 08/03 A3027 RMK A01 T00760033  RH  074%=      5-min Rain = 0
KRRS 060146Z 02007KT 08/03 A3027 RMK A01 T00760033  RH  074%=      5-min Rain = 0
KRRS 060147Z 02007KT 08/03 A3027 RMK A01 T00760032  RH  074%=      5-min Rain = 0
KRRS 060148Z 02007KT 08/03 A3027 RMK A01 T00760032  RH  074%=      5-min Rain = 0
KRRS 060149Z 02007KT 08/03 A3027 RMK A01 T00760032  RH  074%=      5-min Rain = 0
KRRS 060150Z 02007KT 08/03 A3028 RMK A01 T00750032  RH  074%=      5-min Rain = 0
KRRS 060151Z 02006KT 08/03 A3028 RMK A01 T00750032  RH  074%=      5-min Rain = 0
KRRS 060152Z 02006KT 07/03 A3028 RMK A01 T00740031  RH  074%=      5-min Rain = 0
KRRS 060153Z 02006KT 07/03 A3028 RMK A01 T00740031  RH  074%=      5-min Rain = 0
KRRS 060154Z 01006KT 07/03 A3028 RMK A01 T00730031  RH  074%=      5-min Rain = 0
KRRS 060155Z 01006KT 07/03 A3028 RMK A01 T00720030  RH  075%=      5-min Rain = 0
KRRS 060156Z 01006KT 07/03 A3028 RMK A01 T00720031  RH  075%=      5-min Rain = 0
KRRS 060157Z 01006KT 07/03 A3028 RMK A01 T00720031  RH  075%=      5-min Rain = 0
KRRS 060158Z 01006KT 07/03 A3028 RMK A01 T00720031  RH  075%=      5-min Rain = 0
KRRS 060159Z 01006KT 07/03 A3028 RMK A01 T00710030  RH  075%=      5-min Rain = 0
KRRS 060200Z 01006KT 07/03 A3028 RMK A01 T00710031  RH  075%=      5-min Rain = 0
KRRS 060201Z 02006KT 07/03 A3028 RMK A01 T00710031  RH  075%=      5-min Rain = 0
KRRS 060202Z 02006KT 07/03 A3028 RMK A01 T00710031  RH  076%=      5-min Rain = 0
KRRS 060203Z 02006KT 07/03 A3028 RMK A01 T00710031  RH  075%=      5-min Rain = 0
KRRS 060204Z 02006KT 07/03 A3028 RMK A01 T00710030  RH  075%=      5-min Rain = 0
KRRS 060205Z 01006KT 07/03 A3028 RMK A01 T00710031  RH  076%=      5-min Rain = 0
KRRS 060206Z 01006KT 07/03 A3028 RMK A01 T00710031  RH  076%=      5-min Rain = 0
KRRS 060207Z 01006KT 07/03 A3028 RMK A01 T00710031  RH  076%=      5-min Rain = 0
KRRS 060208Z 01006KT 07/03 A3028 RMK A01 T00700031  RH  076%=      5-min Rain = 0
KRRS 060209Z 01006KT 07/03 A3028 RMK A01 T00700031  RH  076%=      5-min Rain = 0
KRRS 060210Z 01006KT 07/03 A3028 RMK A01 T00700031  RH  076%=      5-min Rain = 0
KRRS 060211Z 01006KT 07/03 A3028 RMK A01 T00700031  RH  076%=      5-min Rain = 0
KRRS 060212Z 01006KT 07/03 A3028 RMK A01 T00700031  RH  076%=      5-min Rain = 0
KRRS 060213Z 01006KT 07/03 A3028 RMK A01 T00690030  RH  076%=      5-min Rain = 0
KRRS 060214Z 01006KT 07/03 A3028 RMK A01 T00690031  RH  076%=      5-min Rain = 0
KRRS 060215Z 01006KT 07/03 A3028 RMK A01 T00690030  RH  076%=      5-min Rain = 0
KRRS 060216Z 01006KT 07/03 A3028 RMK A01 T00690030  RH  077%=      5-min Rain = 0
KRRS 060217Z 01006KT 07/03 A3028 RMK A01 T00680031  RH  077%=      5-min Rain = 0
KRRS 060218Z 01006KT 07/03 A3028 RMK A01 T00680030  RH  077%=      5-min Rain = 0
KRRS 060219Z 01006KT 07/03 A3028 RMK A01 T00680030  RH  077%=      5-min Rain = 0
KRRS 060220Z 01006KT 07/03 A3029 RMK A01 T00680030  RH  077%=      5-min Rain = 0
KRRS 060221Z 01006KT 07/03 A3029 RMK A01 T00670030  RH  077%=      5-min Rain = 0
KRRS 060222Z 01006KT 07/03 A3029 RMK A01 T00670030  RH  077%=      5-min Rain = 0
KRRS 060223Z 01006KT 07/03 A3029 RMK A01 T00670030  RH  077%=      5-min Rain = 0
KRRS 060224Z 01006KT 07/03 A3029 RMK A01 T00670030  RH  078%=      5-min Rain = 0
KRRS 060225Z 01006KT 07/03 A3029 RMK A01 T00660030  RH  078%=      5-min Rain = 0
KRRS 060226Z 01006KT 07/03 A3029 RMK A01 T00660030  RH  078%=      5-min Rain = 0
KRRS 060227Z 01006KT 07/03 A3029 RMK A01 T00660030  RH  078%=      5-min Rain = 0
KRRS 060228Z 00006KT 07/03 A3029 RMK A01 T00660030  RH  078%=      5-min Rain = 0
KRRS 060229Z 01006KT 07/03 A3029 RMK A01 T00650030  RH  078%=      5-min Rain = 0
KRRS 060230Z 01006KT 07/03 A3029 RMK A01 T00650030  RH  078%=      5-min Rain = 0
KRRS 060231Z 00006KT 07/03 A3029 RMK A01 T00650030  RH  079%=      5-min Rain = 0
KRRS 060232Z 00006KT 07/03 A3029 RMK A01 T00650030  RH  079%=      5-min Rain = 0
KRRS 060233Z 00006KT 07/03 A3029 RMK A01 T00650030  RH  079%=      5-min Rain = 0
KRRS 060234Z 00007KT 07/03 A3029 RMK A01 T00650031  RH  079%=      5-min Rain = 0
KRRS 060235Z 00007KT 07/03 A3029 RMK A01 T00650031  RH  079%=      5-min Rain = 0
KRRS 060236Z 00007KT 07/03 A3029 RMK A01 T00650030  RH  078%=      5-min Rain = 0
KRRS 060237Z 00007KT 07/03 A3029 RMK A01 T00660031  RH  079%=      5-min Rain = 0
KRRS 060238Z 00006KT 07/03 A3029 RMK A01 T00660031  RH  078%=      5-min Rain = 0
KRRS 060239Z 00007KT 07/03 A3029 RMK A01 T00660031  RH  078%=      5-min Rain = 0
KRRS 060240Z 01007KT 07/03 A3029 RMK A01 T00660031  RH  078%=      5-min Rain = 0
KRRS 060241Z 01007KT 07/03 A3029 RMK A01 T00660031  RH  079%=      5-min Rain = 0
KRRS 060242Z 01007KT 07/03 A3029 RMK A01 T00660031  RH  078%=      5-min Rain = 0
KRRS 060243Z 01007KT 07/03 A3029 RMK A01 T00660032  RH  079%=      5-min Rain = 0
KRRS 060244Z 01007KT 07/03 A3029 RMK A01 T00660031  RH  078%=      5-min Rain = 0
KRRS 060245Z 01007KT 07/03 A3029 RMK A01 T00660032  RH  079%=      5-min Rain = 0
KRRS 060246Z 01007KT 07/03 A3029 RMK A01 T00670032  RH  079%=      5-min Rain = 0
KRRS 060247Z 01007KT 07/03 A3029 RMK A01 T00670033  RH  079%=      5-min Rain = 0
KRRS 060248Z 01007KT 07/03 A3029 RMK A01 T00670032  RH  079%=      5-min Rain = 0
KRRS 060249Z 01006KT 07/03 A3029 RMK A01 T00670033  RH  079%=      5-min Rain = 0
KRRS 060250Z 01007KT 07/03 A3029 RMK A01 T00670032  RH  078%=      5-min Rain = 0
KRRS 060251Z 01007KT 07/03 A3029 RMK A01 T00670033  RH  079%=      5-min Rain = 0
KRRS 060252Z 01007KT 07/03 A3029 RMK A01 T00670033  RH  079%=      5-min Rain = 0
KRRS 060253Z 01007KT 07/03 A3029 RMK A01 T00680034  RH  079%=      5-min Rain = 0
KRRS 060254Z 01007KT 07/03 A3029 RMK A01 T00690034  RH  078%=      5-min Rain = 0
KRRS 060255Z 01007KT 07/03 A3029 RMK A01 T00690034  RH  078%=      5-min Rain = 0
KRRS 060256Z 01007KT 07/03 A3029 RMK A01 T00690034  RH  078%=      5-min Rain = 0
KRRS 060257Z 01007KT 07/03 A3029 RMK A01 T00690034  RH  078%=      5-min Rain = 0
KRRS 060258Z 01006KT 07/03 A3029 RMK A01 T00690034  RH  078%=      5-min Rain = 0
KRRS 060259Z 01007KT 07/03 A303 RMK A01 T00690033  RH  078%=      5-min Rain = 0
KRRS 060300Z 01007KT 07/03 A303 RMK A01 T00680033  RH  078%=      5-min Rain = 0
KRRS 060301Z 01006KT 07/03 A303 RMK A01 T00680033  RH  079%=      5-min Rain = 0
KRRS 060302Z 01007KT 07/03 A303 RMK A01 T00680033  RH  079%=      5-min Rain = 0
KRRS 060303Z 01007KT 07/03 A303 RMK A01 T00680033  RH  079%=      5-min Rain = 0
KRRS 060304Z 01007KT 07/03 A303 RMK A01 T00670033  RH  079%=      5-min Rain = 0
KRRS 060305Z 01007KT 07/03 A303 RMK A01 T00670033  RH  079%=      5-min Rain = 0
KRRS 060306Z 01007KT 07/03 A303 RMK A01 T00670033  RH  079%=      5-min Rain = 0
KRRS 060307Z 01007KT 07/03 A303 RMK A01 T00670033  RH  079%=      5-min Rain = 0
KRRS 060308Z 01007KT 07/03 A303 RMK A01 T00670033  RH  079%=      5-min Rain = 0
KRRS 060309Z 01007KT 07/03 A303 RMK A01 T00670033  RH  079%=      5-min Rain = 0
KRRS 060310Z 01007KT 07/03 A303 RMK A01 T00670033  RH  079%=      5-min Rain = 0
KRRS 060311Z 01006KT 07/03 A303 RMK A01 T00670033  RH  079%=      5-min Rain = 0
KRRS 060312Z 01006KT 07/03 A303 RMK A01 T00660033  RH  079%=      5-min Rain = 0
KRRS 060313Z 01006KT 07/03 A303 RMK A01 T00660033  RH  079%=      5-min Rain = 0
KRRS 060314Z 01006KT 07/03 A303 RMK A01 T00650033  RH  080%=      5-min Rain = 0
KRRS 060315Z 01006KT 07/03 A303 RMK A01 T00650033  RH  080%=      5-min Rain = 0
KRRS 060316Z 01007KT 07/03 A303 RMK A01 T00650033  RH  080%=      5-min Rain = 0
KRRS 060317Z 01006KT 07/03 A303 RMK A01 T00650033  RH  080%=      5-min Rain = 0
KRRS 060318Z 01006KT 07/03 A303 RMK A01 T00650033  RH  080%=      5-min Rain = 0
KRRS 060319Z 01006KT 07/03 A303 RMK A01 T00650033  RH  080%=      5-min Rain = 0
KRRS 060320Z 01006KT 07/03 A303 RMK A01 T00650032  RH  080%=      5-min Rain = 0
KRRS 060321Z 01006KT 06/03 A303 RMK A01 T00640032  RH  080%=      5-min Rain = 0
KRRS 060322Z 01006KT 06/03 A303 RMK A01 T00640032  RH  080%=      5-min Rain = 0
KRRS 060323Z 01006KT 06/03 A303 RMK A01 T00640032  RH  080%=      5-min Rain = 0
KRRS 060324Z 01006KT 06/03 A303 RMK A01 T00630032  RH  080%=      5-min Rain = 0
KRRS 060325Z 01006KT 06/03 A303 RMK A01 T00630032  RH  080%=      5-min Rain = 0
KRRS 060326Z 01006KT 06/03 A303 RMK A01 T00630032  RH  081%=      5-min Rain = 0
KRRS 060327Z 01005KT 06/03 A303 RMK A01 T00630032  RH  081%=      5-min Rain = 0
KRRS 060328Z 01006KT 06/03 A303 RMK A01 T00630032  RH  081%=      5-min Rain = 0
KRRS 060329Z 01006KT 06/03 A3031 RMK A01 T00630032  RH  081%=      5-min Rain = 0
KRRS 060330Z 01006KT 06/03 A3031 RMK A01 T00630032  RH  081%=      5-min Rain = 0
KRRS 060331Z 01006KT 06/03 A3031 RMK A01 T00620032  RH  081%=      5-min Rain = 0
KRRS 060332Z 01006KT 06/03 A3031 RMK A01 T00630032  RH  081%=      5-min Rain = 0
KRRS 060333Z 01005KT 06/03 A3031 RMK A01 T00620032  RH  081%=      5-min Rain = 0
KRRS 060334Z 01006KT 06/03 A3031 RMK A01 T00620032  RH  081%=      5-min Rain = 0
KRRS 060335Z 01005KT 06/03 A3031 RMK A01 T00620031  RH  081%=      5-min Rain = 0
KRRS 060336Z 01006KT 06/03 A3031 RMK A01 T00610031  RH  081%=      5-min Rain = 0
KRRS 060337Z 01006KT 06/03 A3031 RMK A01 T00610031  RH  081%=      5-min Rain = 0
KRRS 060338Z 01006KT 06/03 A3031 RMK A01 T00600031  RH  081%=      5-min Rain = 0
KRRS 060339Z 01006KT 06/03 A3031 RMK A01 T00600031  RH  082%=      5-min Rain = 0
KRRS 060340Z 01006KT 06/03 A3031 RMK A01 T00600031  RH  082%=      5-min Rain = 0
KRRS 060341Z 01006KT 06/03 A3031 RMK A01 T00590031  RH  082%=      5-min Rain = 0
KRRS 060342Z 01006KT 06/03 A3031 RMK A01 T00590031  RH  082%=      5-min Rain = 0
KRRS 060343Z 00006KT 06/03 A3031 RMK A01 T00590031  RH  082%=      5-min Rain = 0
KRRS 060344Z 00006KT 06/03 A3031 RMK A01 T00590031  RH  082%=      5-min Rain = 0
KRRS 060345Z 00006KT 06/03 A3031 RMK A01 T00580030  RH  082%=      5-min Rain = 0
KRRS 060346Z 00006KT 06/03 A3031 RMK A01 T00580031  RH  082%=      5-min Rain = 0
KRRS 060347Z 00006KT 06/03 A3031 RMK A01 T00580030  RH  082%=      5-min Rain = 0
KRRS 060348Z 01006KT 06/03 A3031 RMK A01 T00580030  RH  082%=      5-min Rain = 0
KRRS 060349Z 00006KT 06/03 A3031 RMK A01 T00570030  RH  083%=      5-min Rain = 0
KRRS 060350Z 00006KT 06/03 A3031 RMK A01 T00580030  RH  083%=      5-min Rain = 0
KRRS 060351Z 00006KT 06/03 A3031 RMK A01 T00580031  RH  083%=      5-min Rain = 0
KRRS 060352Z 01006KT 06/03 A3031 RMK A01 T00570030  RH  083%=      5-min Rain = 0
KRRS 060353Z 01006KT 06/03 A3031 RMK A01 T00570030  RH  083%=      5-min Rain = 0
KRRS 060354Z 01006KT 06/03 A3031 RMK A01 T00570030  RH  083%=      5-min Rain = 0
KRRS 060355Z 01006KT 06/03 A3031 RMK A01 T00570030  RH  083%=      5-min Rain = 0
KRRS 060356Z 01006KT 06/03 A3031 RMK A01 T00570030  RH  083%=      5-min Rain = 0
KRRS 060357Z 01006KT 06/03 A3031 RMK A01 T00570030  RH  083%=      5-min Rain = 0
KRRS 060358Z 01005KT 06/03 A3031 RMK A01 T00560030  RH  083%=      5-min Rain = 0
KRRS 060359Z 01005KT 06/03 A3031 RMK A01 T00560030  RH  083%=      5-min Rain = 0
KRRS 060400Z 01005KT 06/03 A3031 RMK A01 T00560030  RH  083%=      5-min Rain = 0
KRRS 060401Z 01005KT 06/03 A3032 RMK A01 T00570031  RH  083%=      5-min Rain = 0
KRRS 060402Z 00005KT 06/03 A3032 RMK A01 T00570030  RH  083%=      5-min Rain = 0
KRRS 060403Z 00005KT 06/03 A3032 RMK A01 T00570031  RH  083%=      5-min Rain = 0
KRRS 060404Z 00005KT 06/03 A3032 RMK A01 T00570031  RH  083%=      5-min Rain = 0
KRRS 060405Z 00005KT 06/03 A3032 RMK A01 T00570031  RH  083%=      5-min Rain = 0
KRRS 060406Z 00005KT 06/03 A3032 RMK A01 T00570031  RH  083%=      5-min Rain = 0
KRRS 060407Z 00005KT 06/03 A3032 RMK A01 T00580031  RH  083%=      5-min Rain = 0
KRRS 060408Z 00005KT 06/03 A3032 RMK A01 T00580031  RH  083%=      5-min Rain = 0
KRRS 060409Z 36005KT 06/03 A3032 RMK A01 T00580031  RH  083%=      5-min Rain = 0
KRRS 060410Z 36005KT 06/03 A3032 RMK A01 T00580032  RH  083%=      5-min Rain = 0
KRRS 060411Z 35005KT 06/03 A3032 RMK A01 T00580032  RH  083%=      5-min Rain = 0
KRRS 060412Z 35006KT 06/03 A3032 RMK A01 T00580032  RH  083%=      5-min Rain = 0
KRRS 060413Z 35006KT 06/03 A3032 RMK A01 T00580032  RH  083%=      5-min Rain = 0
KRRS 060414Z 35005KT 06/03 A3032 RMK A01 T00580032  RH  083%=      5-min Rain = 0
KRRS 060415Z 35006KT 06/03 A3032 RMK A01 T00580032  RH  083%=      5-min Rain = 0
KRRS 060416Z 35006KT 06/03 A3032 RMK A01 T00580032  RH  084%=      5-min Rain = 0
KRRS 060417Z 36006KT 06/03 A3032 RMK A01 T00580032  RH  084%=      5-min Rain = 0
KRRS 060418Z 36006KT 06/03 A3032 RMK A01 T00580032  RH  084%=      5-min Rain = 0
KRRS 060419Z 00006KT 06/03 A3032 RMK A01 T00580033  RH  084%=      5-min Rain = 0
KRRS 060420Z 00006KT 06/03 A3032 RMK A01 T00580033  RH  084%=      5-min Rain = 0
KRRS 060421Z 00006KT 06/03 A3032 RMK A01 T00580033  RH  084%=      5-min Rain = 0
KRRS 060422Z 00006KT 06/03 A3032 RMK A01 T00590033  RH  083%=      5-min Rain = 0
KRRS 060423Z 00006KT 06/03 A3032 RMK A01 T00590033  RH  083%=      5-min Rain = 0
KRRS 060424Z 00006KT 06/03 A3032 RMK A01 T00590033  RH  083%=      5-min Rain = 0
KRRS 060425Z 36006KT 06/03 A3032 RMK A01 T00590033  RH  083%=      5-min Rain = 0
KRRS 060426Z 36006KT 06/03 A3032 RMK A01 T00590033  RH  083%=      5-min Rain = 0
KRRS 060427Z 36006KT 06/03 A3032 RMK A01 T00590033  RH  083%=      5-min Rain = 0
KRRS 060428Z 36006KT 06/03 A3032 RMK A01 T00590033  RH  083%=      5-min Rain = 0
KRRS 060429Z 36006KT 06/03 A3032 RMK A01 T00590033  RH  083%=      5-min Rain = 0
KRRS 060430Z 36006KT 06/03 A3032 RMK A01 T00580033  RH  083%=      5-min Rain = 0
KRRS 060431Z 35006KT 06/03 A3032 RMK A01 T00580033  RH  084%=      5-min Rain = 0
KRRS 060432Z 35006KT 06/03 A3032 RMK A01 T00580033  RH  084%=      5-min Rain = 0
KRRS 060433Z 34006KT 06/03 A3032 RMK A01 T00580033  RH  084%=      5-min Rain = 0
KRRS 060434Z 34006KT 06/03 A3032 RMK A01 T00580033  RH  084%=      5-min Rain = 0
KRRS 060435Z 34006KT 06/03 A3032 RMK A01 T00580033  RH  084%=      5-min Rain = 0
KRRS 060436Z 34006KT 06/03 A3032 RMK A01 T00570032  RH  084%=      5-min Rain = 0
KRRS 060437Z 34006KT 06/03 A3032 RMK A01 T00570033  RH  084%=      5-min Rain = 0
KRRS 060438Z 34005KT 06/03 A3032 RMK A01 T00570033  RH  084%=      5-min Rain = 0
KRRS 060439Z 33006KT 06/03 A3032 RMK A01 T00570033  RH  084%=      5-min Rain = 0
KRRS 060440Z 33006KT 06/03 A3032 RMK A01 T00570033  RH  084%=      5-min Rain = 0
KRRS 060441Z 33007KT 06/03 A3032 RMK A01 T00570032  RH  084%=      5-min Rain = 0
KRRS 060442Z 34007KT 06/03 A3032 RMK A01 T00570032  RH  084%=      5-min Rain = 0
KRRS 060443Z 33007KT 06/03 A3032 RMK A01 T00570033  RH  085%=      5-min Rain = 0
KRRS 060444Z 33007KT 06/03 A3032 RMK A01 T00570033  RH  085%=      5-min Rain = 0
KRRS 060445Z 33007KT 06/03 A3032 RMK A01 T00570033  RH  085%=      5-min Rain = 0
KRRS 060446Z 33006KT 06/03 A3032 RMK A01 T00570033  RH  085%=      5-min Rain = 0
KRRS 060447Z 33007KT 06/03 A3032 RMK A01 T00570033  RH  085%=      5-min Rain = 0
KRRS 060448Z 33006KT 06/03 A3032 RMK A01 T00570033  RH  084%=      5-min Rain = 0
KRRS 060449Z 33006KT 06/03 A3032 RMK A01 T00570033  RH  084%=      5-min Rain = 0
KRRS 060450Z 33006KT 06/03 A3032 RMK A01 T00570033  RH  085%=      5-min Rain = 0
KRRS 060451Z 33006KT 06/03 A3032 RMK A01 T00570033  RH  084%=      5-min Rain = 0
KRRS 060452Z 33006KT 06/03 A3032 RMK A01 T00570033  RH  084%=      5-min Rain = 0
KRRS 060453Z 33006KT 06/03 A3032 RMK A01 T00580033  RH  084%=      5-min Rain = 0
KRRS 060454Z 32006KT 06/03 A3032 RMK A01 T00580034  RH  084%=      5-min Rain = 0
KRRS 060455Z 33005KT 06/03 A3033 RMK A01 T00580033  RH  084%=      5-min Rain = 0
KRRS 060456Z 32005KT 06/03 A3033 RMK A01 T00580033  RH  084%=      5-min Rain = 0
KRRS 060457Z 33004KT 06/03 A3033 RMK A01 T00580033  RH  084%=      5-min Rain = 0
KRRS 060458Z 33004KT 06/03 A3033 RMK A01 T00570033  RH  084%=      5-min Rain = 0
KRRS 060459Z 33004KT 06/03 A3033 RMK A01 T00580033  RH  084%=      5-min Rain = 0
KRRS 060500Z 33005KT 06/03 A3033 RMK A01 T00570033  RH  084%=      5-min Rain = 0
KRRS 060501Z 33004KT 06/03 A3033 RMK A01 T00570033  RH  085%=      5-min Rain = 0
KRRS 060502Z 33005KT 06/03 A3033 RMK A01 T00580033  RH  085%=      5-min Rain = 0
KRRS 060503Z 33005KT 06/03 A3033 RMK A01 T00580034  RH  085%=      5-min Rain = 0
KRRS 060504Z 34005KT 06/03 A3033 RMK A01 T00580034  RH  084%=      5-min Rain = 0
KRRS 060505Z 34006KT 06/03 A3033 RMK A01 T00580034  RH  084%=      5-min Rain = 0
KRRS 060506Z 35006KT 06/03 A3033 RMK A01 T00580033  RH  084%=      5-min Rain = 0
KRRS 060507Z 35006KT 06/03 A3033 RMK A01 T00580034  RH  084%=      5-min Rain = 0
KRRS 060508Z 36006KT 06/03 A3033 RMK A01 T00580034  RH  084%=      5-min Rain = 0
KRRS 060509Z 36006KT 06/03 A3033 RMK A01 T00580034  RH  084%=      5-min Rain = 0
KRRS 060510Z 00006KT 06/03 A3033 RMK A01 T00590034  RH  084%=      5-min Rain = 0
KRRS 060511Z 00006KT 06/04 A3033 RMK A01 T00590035  RH  084%=      5-min Rain = 0
KRRS 060512Z 36006KT 06/03 A3033 RMK A01 T00590034  RH  084%=      5-min Rain = 0
KRRS 060513Z 00006KT 06/03 A3033 RMK A01 T00590034  RH  084%=      5-min Rain = 0
KRRS 060514Z 36006KT 06/03 A3033 RMK A01 T00590034  RH  084%=      5-min Rain = 0
KRRS 060515Z 00006KT 06/03 A3033 RMK A01 T00580033  RH  084%=      5-min Rain = 0
KRRS 060516Z 36006KT 06/03 A3033 RMK A01 T00560032  RH  084%=      5-min Rain = 0
KRRS 060517Z 00005KT 06/03 A3033 RMK A01 T00560033  RH  085%=      5-min Rain = 0
KRRS 060518Z 00006KT 06/03 A3033 RMK A01 T00560034  RH  086%=      5-min Rain = 0
KRRS 060519Z 01005KT 06/03 A3033 RMK A01 T00570034  RH  085%=      5-min Rain = 0
KRRS 060520Z 01005KT 06/03 A3033 RMK A01 T00570033  RH  085%=      5-min Rain = 0
KRRS 060521Z 01005KT 06/03 A3032 RMK A01 T00570033  RH  085%=      5-min Rain = 0
KRRS 060522Z 01005KT 06/03 A3032 RMK A01 T00560034  RH  086%=      5-min Rain = 0
KRRS 060523Z 01005KT 06/03 A3032 RMK A01 T00560034  RH  085%=      5-min Rain = 0
KRRS 060524Z 01005KT 06/03 A3032 RMK A01 T00560033  RH  085%=      5-min Rain = 0
KRRS 060525Z 01005KT 06/03 A3032 RMK A01 T00560034  RH  086%=      5-min Rain = 0
KRRS 060526Z 01005KT 06/03 A3032 RMK A01 T00560034  RH  086%=      5-min Rain = 0
KRRS 060527Z 01004KT 06/04 A3032 RMK A01 T00570035  RH  086%=      5-min Rain = 0
KRRS 060528Z 01005KT 06/04 A3032 RMK A01 T00580035  RH  086%=      5-min Rain = 0
KRRS 060529Z 01004KT 06/04 A3032 RMK A01 T00570035  RH  085%=      5-min Rain = 0
KRRS 060530Z 01004KT 06/04 A3032 RMK A01 T00580036  RH  086%=      5-min Rain = 0
KRRS 060531Z 01004KT 06/04 A3032 RMK A01 T00580036  RH  086%=      5-min Rain = 0
KRRS 060532Z 01005KT 06/04 A3032 RMK A01 T00580036  RH  086%=      5-min Rain = 0
KRRS 060533Z 01005KT 06/04 A3032 RMK A01 T00590036  RH  086%=      5-min Rain = 0
KRRS 060534Z 00004KT 06/04 A3032 RMK A01 T00590036  RH  085%=      5-min Rain = 0
KRRS 060535Z 01005KT 06/04 A3032 RMK A01 T00590036  RH  085%=      5-min Rain = 0
KRRS 060536Z 01004KT 06/04 A3032 RMK A01 T00590037  RH  086%=      5-min Rain = 0
KRRS 060537Z 01004KT 06/04 A3032 RMK A01 T00590036  RH  085%=      5-min Rain = 0
KRRS 060538Z 36004KT 06/04 A3032 RMK A01 T00590036  RH  085%=      5-min Rain = 0
KRRS 060539Z 36005KT 06/04 A3032 RMK A01 T00580036  RH  086%=      5-min Rain = 0
KRRS 060540Z 35005KT 06/04 A3032 RMK A01 T00580035  RH  085%=      5-min Rain = 0
KRRS 060541Z 36005KT 06/04 A3032 RMK A01 T00580035  RH  085%=      5-min Rain = 0
KRRS 060542Z 35005KT 06/04 A3032 RMK A01 T00570035  RH  086%=      5-min Rain = 0
KRRS 060543Z 35005KT 06/04 A3032 RMK A01 T00570035  RH  086%=      5-min Rain = 0
KRRS 060544Z 36005KT 06/04 A3032 RMK A01 T00560035  RH  086%=      5-min Rain = 0
KRRS 060545Z 35005KT 06/03 A3032 RMK A01 T00560034  RH  086%=      5-min Rain = 0
KRRS 060546Z 35005KT 06/04 A3032 RMK A01 T00560035  RH  086%=      5-min Rain = 0
KRRS 060547Z 35005KT 06/04 A3032 RMK A01 T00560035  RH  087%=      5-min Rain = 0
KRRS 060548Z 35005KT 06/04 A3032 RMK A01 T00550035  RH  087%=      5-min Rain = 0
KRRS 060549Z 35005KT 06/04 A3032 RMK A01 T00550035  RH  087%=      5-min Rain = 0
KRRS 060550Z 34005KT 06/04 A3032 RMK A01 T00550035  RH  087%=      5-min Rain = 0
KRRS 060551Z 35005KT 06/04 A3032 RMK A01 T00550035  RH  087%=      5-min Rain = 0
KRRS 060552Z 35005KT 05/04 A3032 RMK A01 T00540035  RH  087%=      5-min Rain = 0
KRRS 060553Z 35005KT 05/04 A3032 RMK A01 T00540035  RH  088%=      5-min Rain = 0
KRRS 060554Z 36005KT 06/04 A3032 RMK A01 T00550035  RH  088%=      5-min Rain = 0
KRRS 060555Z 34005KT 06/04 A3032 RMK A01 T00550035  RH  087%=      5-min Rain = 0
KRRS 060556Z 34005KT 06/04 A3032 RMK A01 T00550036  RH  087%=      5-min Rain = 0
KRRS 060557Z 34005KT 06/04 A3032 RMK A01 T00550036  RH  087%=      5-min Rain = 0
KRRS 060558Z 34005KT 06/04 A3032 RMK A01 T00550035  RH  087%=      5-min Rain = 0
KRRS 060559Z 34005KT 06/04 A3032 RMK A01 T00550036  RH  087%=      5-min Rain = 0

Page generated in 0.132 seconds.